Observation data for Amarillo 7 South Southeast on 01/18/2019      Previous  Date  Next       Current Mesonet Observations  Soil Data  Daily Summary Page  Observations in Plain Language
KAM1 180600Z 22003KT 03/M04 A2998 RMK A01 T00321038  RH  060%=      5-min Rain = 0
KAM1 180601Z 22003KT 03/M04 A2998 RMK A01 T00341038  RH  060%=      5-min Rain = 0
KAM1 180602Z 21003KT 04/M04 A2998 RMK A01 T00351037  RH  059%=      5-min Rain = 0
KAM1 180603Z 21004KT 04/M04 A2998 RMK A01 T00371036  RH  059%=      5-min Rain = 0
KAM1 180604Z 20004KT 04/M04 A2998 RMK A01 T00391036  RH  058%=      5-min Rain = 0
KAM1 180605Z 19004KT 04/M04 A2998 RMK A01 T00401036  RH  058%=      5-min Rain = 0
KAM1 180606Z 19004KT 04/M04 A2998 RMK A01 T00411036  RH  057%=      5-min Rain = 0
KAM1 180607Z 19005KT 04/M04 A2998 RMK A01 T00421036  RH  057%=      5-min Rain = 0
KAM1 180608Z 19004KT 04/M04 A2998 RMK A01 T00421037  RH  056%=      5-min Rain = 0
KAM1 180609Z 18005KT 04/M04 A2998 RMK A01 T00421038  RH  056%=      5-min Rain = 0
KAM1 180610Z 18005KT 04/M04 A2998 RMK A01 T00411038  RH  057%=      5-min Rain = 0
KAM1 180611Z 18005KT 04/M04 A2998 RMK A01 T00401038  RH  057%=      5-min Rain = 0
KAM1 180612Z 18005KT 04/M04 A2998 RMK A01 T00401037  RH  057%=      5-min Rain = 0
KAM1 180613Z 18005KT 04/M04 A2998 RMK A01 T00401038  RH  057%=      5-min Rain = 0
KAM1 180614Z 19005KT 04/M04 A2998 RMK A01 T00391038  RH  057%=      5-min Rain = 0
KAM1 180615Z 19006KT 04/M04 A2998 RMK A01 T00381038  RH  057%=      5-min Rain = 0
KAM1 180616Z 19006KT 04/M04 A2998 RMK A01 T00381037  RH  058%=      5-min Rain = 0
KAM1 180617Z 19006KT 04/M04 A2998 RMK A01 T00391038  RH  058%=      5-min Rain = 0
KAM1 180618Z 19006KT 04/M04 A2998 RMK A01 T00381039  RH  057%=      5-min Rain = 0
KAM1 180619Z 19007KT 04/M04 A2998 RMK A01 T00361041  RH  057%=      5-min Rain = 0
KAM1 180620Z 19007KT 03/M04 A2998 RMK A01 T00331043  RH  057%=      5-min Rain = 0
KAM1 180621Z 19007KT 03/M05 A2998 RMK A01 T00301045  RH  058%=      5-min Rain = 0
KAM1 180622Z 19007KT 03/M05 A2998 RMK A01 T00281045  RH  059%=      5-min Rain = 0
KAM1 180623Z 19007KT 03/M05 A2998 RMK A01 T00261046  RH  059%=      5-min Rain = 0
KAM1 180624Z 18008KT 02/M05 A2997 RMK A01 T00241047  RH  060%=      5-min Rain = 0
KAM1 180625Z 18007KT 02/M05 A2997 RMK A01 T00221047  RH  060%=      5-min Rain = 0
KAM1 180626Z 18007KT 02/M05 A2997 RMK A01 T00201047  RH  061%=      5-min Rain = 0
KAM1 180627Z 18008KT 02/M05 A2997 RMK A01 T00191046  RH  062%=      5-min Rain = 0
KAM1 180628Z 18008KT 02/M05 A2997 RMK A01 T00191045  RH  063%=      5-min Rain = 0
KAM1 180629Z 18008KT 02/M04 A2997 RMK A01 T00191044  RH  063%=      5-min Rain = 0
KAM1 180630Z 18008KT 02/M04 A2997 RMK A01 T00191044  RH  063%=      5-min Rain = 0
KAM1 180631Z 18008KT 02/M04 A2997 RMK A01 T00191043  RH  064%=      5-min Rain = 0
KAM1 180632Z 19008KT 02/M04 A2997 RMK A01 T00191043  RH  064%=      5-min Rain = 0
KAM1 180633Z 19008KT 02/M04 A2997 RMK A01 T00191042  RH  064%=      5-min Rain = 0
KAM1 180634Z 19009KT 02/M04 A2996 RMK A01 T00211040  RH  064%=      5-min Rain = 0
KAM1 180635Z 20009KT 02/M04 A2996 RMK A01 T00231039  RH  064%=      5-min Rain = 0
KAM1 180636Z 20009KT 03/M04 A2996 RMK A01 T00251037  RH  063%=      5-min Rain = 0
KAM1 180637Z 21009KT 03/M04 A2996 RMK A01 T00281036  RH  063%=      5-min Rain = 0
KAM1 180638Z 21009KT 03/M04 A2996 RMK A01 T00311035  RH  062%=      5-min Rain = 0
KAM1 180639Z 21010KT 03/M03 A2996 RMK A01 T00341034  RH  061%=      5-min Rain = 0
KAM1 180640Z 21010KT 04/M03 A2996 RMK A01 T00381033  RH  060%=      5-min Rain = 0
KAM1 180641Z 21010KT 04/M03 A2996 RMK A01 T00401032  RH  059%=      5-min Rain = 0
KAM1 180642Z 21010KT 04/M03 A2996 RMK A01 T00421032  RH  058%=      5-min Rain = 0
KAM1 180643Z 22010KT 04/M03 A2996 RMK A01 T00441032  RH  058%=      5-min Rain = 0
KAM1 180644Z 22009KT 05/M03 A2996 RMK A01 T00471031  RH  057%=      5-min Rain = 0
KAM1 180645Z 22009KT 05/M03 A2996 RMK A01 T00471032  RH  056%=      5-min Rain = 0
KAM1 180646Z 22009KT 05/M03 A2996 RMK A01 T00481032  RH  056%=      5-min Rain = 0
KAM1 180647Z 22009KT 05/M03 A2996 RMK A01 T00481032  RH  056%=      5-min Rain = 0
KAM1 180648Z 22009KT 05/M03 A2996 RMK A01 T00481033  RH  056%=      5-min Rain = 0
KAM1 180649Z 21008KT 05/M03 A2996 RMK A01 T00481033  RH  056%=      5-min Rain = 0
KAM1 180650Z 21008KT 05/M03 A2995 RMK A01 T00481033  RH  056%=      5-min Rain = 0
KAM1 180651Z 21009KT 05/M03 A2995 RMK A01 T00481034  RH  056%=      5-min Rain = 0
KAM1 180652Z 21009KT 05/M03 A2995 RMK A01 T00471034  RH  056%=      5-min Rain = 0
KAM1 180653Z 21009KT 05/M03 A2995 RMK A01 T00471034  RH  056%=      5-min Rain = 0
KAM1 180654Z 21009KT 05/M03 A2995 RMK A01 T00481033  RH  056%=      5-min Rain = 0
KAM1 180655Z 21009KT 05/M03 A2995 RMK A01 T00471033  RH  056%=      5-min Rain = 0
KAM1 180656Z 21009KT 05/M03 A2995 RMK A01 T00471034  RH  056%=      5-min Rain = 0
KAM1 180657Z 20010KT 05/M03 A2995 RMK A01 T00471033  RH  056%=      5-min Rain = 0
KAM1 180658Z 21010KT 05/M03 A2995 RMK A01 T00481033  RH  056%=      5-min Rain = 0
KAM1 180659Z 21010KT 05/M03 A2994 RMK A01 T00491032  RH  056%=      5-min Rain = 0
KAM1 180700Z 21010KT 05/M03 A2994 RMK A01 T00491032  RH  055%=      5-min Rain = 0
KAM1 180701Z 21010KT 05/M03 A2994 RMK A01 T00501032  RH  055%=      5-min Rain = 0
KAM1 180702Z 21010KT 05/M03 A2994 RMK A01 T00501032  RH  055%=      5-min Rain = 0
KAM1 180703Z 21010KT 05/M03 A2994 RMK A01 T00511031  RH  055%=      5-min Rain = 0
KAM1 180704Z 21011KT 05/M03 A2994 RMK A01 T00521031  RH  055%=      5-min Rain = 0
KAM1 180705Z 21011KT 05/M03 A2994 RMK A01 T00521031  RH  055%=      5-min Rain = 0
KAM1 180706Z 21012KT 05/M03 A2994 RMK A01 T00521031  RH  055%=      5-min Rain = 0
KAM1 180707Z 21010KT 05/M03 A2994 RMK A01 T00541030  RH  055%=      5-min Rain = 0
KAM1 180708Z 21010KT 05/M03 A2994 RMK A01 T00541030  RH  055%=      5-min Rain = 0
KAM1 180709Z 21010KT 05/M03 A2994 RMK A01 T00541031  RH  055%=      5-min Rain = 0
KAM1 180710Z 21010KT 05/M03 A2994 RMK A01 T00531031  RH  055%=      5-min Rain = 0
KAM1 180711Z 22010KT 05/M03 A2994 RMK A01 T00531031  RH  055%=      5-min Rain = 0
KAM1 180712Z 22009KT 05/M03 A2994 RMK A01 T00521031  RH  055%=      5-min Rain = 0
KAM1 180713Z 22010KT 05/M03 A2994 RMK A01 T00521031  RH  055%=      5-min Rain = 0
KAM1 180714Z 22009KT 05/M03 A2993 RMK A01 T00511031  RH  055%=      5-min Rain = 0
KAM1 180715Z 21009KT 05/M03 A2993 RMK A01 T00501031  RH  056%=      5-min Rain = 0
KAM1 180716Z 21010KT 05/M03 A2993 RMK A01 T00511031  RH  056%=      5-min Rain = 0
KAM1 180717Z 21009KT 05/M03 A2993 RMK A01 T00511031  RH  056%=      5-min Rain = 0
KAM1 180718Z 22009KT 05/M03 A2993 RMK A01 T00501031  RH  056%=      5-min Rain = 0
KAM1 180719Z 21009KT 05/M03 A2993 RMK A01 T00501031  RH  056%=      5-min Rain = 0
KAM1 180720Z 22009KT 05/M03 A2993 RMK A01 T00491031  RH  056%=      5-min Rain = 0
KAM1 180721Z 21009KT 05/M03 A2993 RMK A01 T00481031  RH  056%=      5-min Rain = 0
KAM1 180722Z 21010KT 05/M03 A2992 RMK A01 T00481031  RH  057%=      5-min Rain = 0
KAM1 180723Z 21010KT 05/M03 A2992 RMK A01 T00471031  RH  057%=      5-min Rain = 0
KAM1 180724Z 21010KT 05/M03 A2992 RMK A01 T00471031  RH  057%=      5-min Rain = 0
KAM1 180725Z 21010KT 05/M03 A2992 RMK A01 T00471031  RH  057%=      5-min Rain = 0
KAM1 180726Z 21010KT 05/M03 A2992 RMK A01 T00471031  RH  057%=      5-min Rain = 0
KAM1 180727Z 22010KT 05/M03 A2992 RMK A01 T00471030  RH  057%=      5-min Rain = 0
KAM1 180728Z 21011KT 05/M03 A2992 RMK A01 T00471030  RH  057%=      5-min Rain = 0
KAM1 180729Z 21010KT 05/M03 A2992 RMK A01 T00481030  RH  057%=      5-min Rain = 0
KAM1 180730Z 21010KT 05/M03 A2991 RMK A01 T00481030  RH  057%=      5-min Rain = 0
KAM1 180731Z 21011KT 05/M03 A2991 RMK A01 T00481029  RH  057%=      5-min Rain = 0
KAM1 180732Z 21010KT 05/M03 A2991 RMK A01 T00491029  RH  057%=      5-min Rain = 0
KAM1 180733Z 21010KT 05/M03 A2991 RMK A01 T00491029  RH  057%=      5-min Rain = 0
KAM1 180734Z 21010KT 05/M03 A2991 RMK A01 T00491029  RH  057%=      5-min Rain = 0
KAM1 180735Z 21010KT 05/M03 A2991 RMK A01 T00481029  RH  057%=      5-min Rain = 0
KAM1 180736Z 21009KT 05/M03 A2991 RMK A01 T00481029  RH  057%=      5-min Rain = 0
KAM1 180737Z 21009KT 05/M03 A299 RMK A01 T00481029  RH  058%=      5-min Rain = 0
KAM1 180738Z 21009KT 05/M03 A299 RMK A01 T00481029  RH  058%=      5-min Rain = 0
KAM1 180739Z 21009KT 05/M03 A299 RMK A01 T00471029  RH  058%=      5-min Rain = 0
KAM1 180740Z 21009KT 05/M03 A299 RMK A01 T00461029  RH  058%=      5-min Rain = 0
KAM1 180741Z 21010KT 05/M03 A299 RMK A01 T00461029  RH  058%=      5-min Rain = 0
KAM1 180742Z 21010KT 05/M03 A299 RMK A01 T00461029  RH  058%=      5-min Rain = 0
KAM1 180743Z 21010KT 05/M03 A299 RMK A01 T00461028  RH  058%=      5-min Rain = 0
KAM1 180744Z 21010KT 05/M03 A299 RMK A01 T00471028  RH  058%=      5-min Rain = 0
KAM1 180745Z 21010KT 05/M03 A299 RMK A01 T00471028  RH  058%=      5-min Rain = 0
KAM1 180746Z 21010KT 05/M03 A299 RMK A01 T00471028  RH  058%=      5-min Rain = 0
KAM1 180747Z 22009KT 05/M03 A299 RMK A01 T00471028  RH  058%=      5-min Rain = 0
KAM1 180748Z 21010KT 05/M03 A2989 RMK A01 T00471028  RH  058%=      5-min Rain = 0
KAM1 180749Z 21011KT 05/M03 A2989 RMK A01 T00461028  RH  058%=      5-min Rain = 0
KAM1 180750Z 22011KT 05/M03 A2989 RMK A01 T00471028  RH  058%=      5-min Rain = 0
KAM1 180751Z 22011KT 05/M03 A2989 RMK A01 T00471028  RH  058%=      5-min Rain = 0
KAM1 180752Z 22011KT 05/M03 A299 RMK A01 T00461029  RH  058%=      5-min Rain = 0
KAM1 180753Z 22011KT 05/M03 A299 RMK A01 T00461029  RH  058%=      5-min Rain = 0
KAM1 180754Z 22011KT 05/M03 A299 RMK A01 T00461028  RH  059%=      5-min Rain = 0
KAM1 180755Z 22011KT 05/M03 A299 RMK A01 T00451029  RH  059%=      5-min Rain = 0
KAM1 180756Z 22011KT 05/M03 A299 RMK A01 T00451029  RH  059%=      5-min Rain = 0
KAM1 180757Z 22010KT 04/M03 A299 RMK A01 T00441029  RH  059%=      5-min Rain = 0
KAM1 180758Z 23011KT 04/M03 A299 RMK A01 T00441028  RH  059%=      5-min Rain = 0
KAM1 180759Z 23010KT 05/M03 A299 RMK A01 T00451028  RH  059%=      5-min Rain = 0
KAM1 180800Z 23010KT 05/M03 A299 RMK A01 T00451028  RH  059%=      5-min Rain = 0
KAM1 180801Z 22011KT 05/M03 A299 RMK A01 T00451028  RH  059%=      5-min Rain = 0
KAM1 180802Z 22010KT 05/M03 A299 RMK A01 T00461027  RH  059%=      5-min Rain = 0
KAM1 180803Z 22012KT 05/M03 A2989 RMK A01 T00481027  RH  058%=      5-min Rain = 0
KAM1 180804Z 22012KT 05/M03 A2989 RMK A01 T00491027  RH  058%=      5-min Rain = 0
KAM1 180805Z 22012KT 05/M03 A299 RMK A01 T00511027  RH  057%=      5-min Rain = 0
KAM1 180806Z 22011KT 05/M03 A299 RMK A01 T00511027  RH  057%=      5-min Rain = 0
KAM1 180807Z 23012KT 05/M03 A2989 RMK A01 T00521027  RH  056%=      5-min Rain = 0
KAM1 180808Z 22013KT 05/M03 A2989 RMK A01 T00541027  RH  056%=      5-min Rain = 0
KAM1 180809Z 22014KT 06/M03 A2989 RMK A01 T00561027  RH  055%=      5-min Rain = 0
KAM1 180810Z 23013KT 06/M03 A2989 RMK A01 T00571027  RH  055%=      5-min Rain = 0
KAM1 180811Z 23011KT 06/M03 A2989 RMK A01 T00581027  RH  054%=      5-min Rain = 0
KAM1 180812Z 23013KT 06/M03 A2989 RMK A01 T00571028  RH  054%=      5-min Rain = 0
KAM1 180813Z 22013G19KT 06/M03 A2989 RMK A01 T00571028  RH  054%=      5-min Rain = 0
KAM1 180814Z 22013KT 06/M03 A2989 RMK A01 T00571028  RH  054%=      5-min Rain = 0
KAM1 180815Z 22013KT 06/M03 A2989 RMK A01 T00581028  RH  054%=      5-min Rain = 0
KAM1 180816Z 22015KT 06/M03 A2989 RMK A01 T00571028  RH  054%=      5-min Rain = 0
KAM1 180817Z 22014KT 06/M03 A2989 RMK A01 T00581029  RH  054%=      5-min Rain = 0
KAM1 180818Z 22014KT 06/M03 A2989 RMK A01 T00581029  RH  054%=      5-min Rain = 0
KAM1 180819Z 22013G18KT 06/M03 A2989 RMK A01 T00581029  RH  054%=      5-min Rain = 0
KAM1 180820Z 22014KT 06/M03 A2989 RMK A01 T00581029  RH  054%=      5-min Rain = 0
KAM1 180821Z 22014KT 06/M03 A2989 RMK A01 T00581029  RH  054%=      5-min Rain = 0
KAM1 180822Z 22014KT 06/M03 A2989 RMK A01 T00571030  RH  054%=      5-min Rain = 0
KAM1 180823Z 22013KT 06/M03 A2989 RMK A01 T00571030  RH  054%=      5-min Rain = 0
KAM1 180824Z 21012KT 06/M03 A2989 RMK A01 T00551030  RH  054%=      5-min Rain = 0
KAM1 180825Z 22012KT 06/M03 A2989 RMK A01 T00551030  RH  054%=      5-min Rain = 0
KAM1 180826Z 22012KT 05/M03 A2989 RMK A01 T00541030  RH  054%=      5-min Rain = 0
KAM1 180827Z 22012KT 05/M03 A2989 RMK A01 T00531031  RH  055%=      5-min Rain = 0
KAM1 180828Z 22013KT 05/M03 A2989 RMK A01 T00531031  RH  055%=      5-min Rain = 0
KAM1 180829Z 22011KT 05/M03 A2989 RMK A01 T00541030  RH  055%=      5-min Rain = 0
KAM1 180830Z 22012KT 05/M03 A2989 RMK A01 T00541031  RH  054%=      5-min Rain = 0
KAM1 180831Z 21012KT 05/M03 A2988 RMK A01 T00541031  RH  054%=      5-min Rain = 0
KAM1 180832Z 22011KT 05/M03 A2988 RMK A01 T00541031  RH  054%=      5-min Rain = 0
KAM1 180833Z 21012KT 06/M03 A2988 RMK A01 T00551031  RH  054%=      5-min Rain = 0
KAM1 180834Z 22012KT 06/M03 A2988 RMK A01 T00561031  RH  054%=      5-min Rain = 0
KAM1 180835Z 22013KT 06/M03 A2988 RMK A01 T00561031  RH  053%=      5-min Rain = 0
KAM1 180836Z 22011KT 06/M03 A2988 RMK A01 T00561032  RH  053%=      5-min Rain = 0
KAM1 180837Z 22013KT 06/M03 A2988 RMK A01 T00561032  RH  053%=      5-min Rain = 0
KAM1 180838Z 22012KT 06/M03 A2988 RMK A01 T00561032  RH  053%=      5-min Rain = 0
KAM1 180839Z 22012KT 06/M03 A2988 RMK A01 T00561032  RH  053%=      5-min Rain = 0
KAM1 180840Z 22011KT 06/M03 A2988 RMK A01 T00561032  RH  053%=      5-min Rain = 0
KAM1 180841Z 22012KT 06/M03 A2988 RMK A01 T00561032  RH  053%=      5-min Rain = 0
KAM1 180842Z 22012KT 06/M03 A2988 RMK A01 T00561032  RH  053%=      5-min Rain = 0
KAM1 180843Z 22012KT 06/M03 A2988 RMK A01 T00561032  RH  053%=      5-min Rain = 0
KAM1 180844Z 22011KT 06/M03 A2988 RMK A01 T00561032  RH  053%=      5-min Rain = 0
KAM1 180845Z 22011KT 06/M03 A2988 RMK A01 T00561032  RH  053%=      5-min Rain = 0
KAM1 180846Z 22011KT 06/M03 A2987 RMK A01 T00561033  RH  053%=      5-min Rain = 0
KAM1 180847Z 21011KT 06/M03 A2987 RMK A01 T00561033  RH  053%=      5-min Rain = 0
KAM1 180848Z 21010KT 05/M03 A2988 RMK A01 T00541033  RH  053%=      5-min Rain = 0
KAM1 180849Z 21011KT 05/M03 A2988 RMK A01 T00541034  RH  053%=      5-min Rain = 0
KAM1 180850Z 22012KT 05/M03 A2988 RMK A01 T00521034  RH  054%=      5-min Rain = 0
KAM1 180851Z 22011KT 05/M03 A2988 RMK A01 T00521034  RH  054%=      5-min Rain = 0
KAM1 180852Z 21012KT 05/M03 A2988 RMK A01 T00511034  RH  054%=      5-min Rain = 0
KAM1 180853Z 22012KT 05/M03 A2988 RMK A01 T00511033  RH  054%=      5-min Rain = 0
KAM1 180854Z 22012KT 05/M03 A2988 RMK A01 T00511033  RH  055%=      5-min Rain = 0
KAM1 180855Z 22012KT 05/M03 A2988 RMK A01 T00501033  RH  055%=      5-min Rain = 0
KAM1 180856Z 22012KT 05/M03 A2988 RMK A01 T00501034  RH  055%=      5-min Rain = 0
KAM1 180857Z 22011KT 05/M03 A2988 RMK A01 T00501033  RH  055%=      5-min Rain = 0
KAM1 180858Z 22011KT 05/M03 A2988 RMK A01 T00491034  RH  055%=      5-min Rain = 0
KAM1 180859Z 22011KT 05/M03 A2988 RMK A01 T00481034  RH  055%=      5-min Rain = 0
KAM1 180900Z 22012KT 05/M03 A2987 RMK A01 T00471034  RH  056%=      5-min Rain = 0
KAM1 180901Z 22010KT 05/M03 A2987 RMK A01 T00471034  RH  056%=      5-min Rain = 0
KAM1 180902Z 22011KT 05/M03 A2987 RMK A01 T00461034  RH  056%=      5-min Rain = 0
KAM1 180903Z 22011KT 05/M03 A2987 RMK A01 T00461033  RH  056%=      5-min Rain = 0
KAM1 180904Z 22011KT 05/M03 A2987 RMK A01 T00451034  RH  056%=      5-min Rain = 0
KAM1 180905Z 22010KT 05/M03 A2987 RMK A01 T00451034  RH  057%=      5-min Rain = 0
KAM1 180906Z 22011KT 05/M03 A2988 RMK A01 T00451034  RH  057%=      5-min Rain = 0
KAM1 180907Z 22010KT 04/M03 A2988 RMK A01 T00441034  RH  057%=      5-min Rain = 0
KAM1 180908Z 22010KT 04/M03 A2987 RMK A01 T00441034  RH  057%=      5-min Rain = 0
KAM1 180909Z 22010KT 04/M03 A2987 RMK A01 T00441034  RH  057%=      5-min Rain = 0
KAM1 180910Z 22010KT 04/M03 A2988 RMK A01 T00431034  RH  057%=      5-min Rain = 0
KAM1 180911Z 22010KT 04/M03 A2988 RMK A01 T00421034  RH  058%=      5-min Rain = 0
KAM1 180912Z 22009KT 04/M03 A2988 RMK A01 T00421034  RH  058%=      5-min Rain = 0
KAM1 180913Z 22010KT 04/M03 A2988 RMK A01 T00421034  RH  058%=      5-min Rain = 0
KAM1 180914Z 22009KT 04/M03 A2987 RMK A01 T00411034  RH  058%=      5-min Rain = 0
KAM1 180915Z 22010KT 04/M03 A2987 RMK A01 T00411034  RH  058%=      5-min Rain = 0
KAM1 180916Z 22010KT 04/M03 A2987 RMK A01 T00421034  RH  058%=      5-min Rain = 0
KAM1 180917Z 22009KT 04/M03 A2987 RMK A01 T00411034  RH  058%=      5-min Rain = 0
KAM1 180918Z 22009KT 04/M03 A2987 RMK A01 T00411034  RH  058%=      5-min Rain = 0
KAM1 180919Z 22009KT 04/M03 A2987 RMK A01 T00411034  RH  058%=      5-min Rain = 0
KAM1 180920Z 21010KT 04/M04 A2987 RMK A01 T00401035  RH  058%=      5-min Rain = 0
KAM1 180921Z 22009KT 04/M04 A2987 RMK A01 T00391035  RH  059%=      5-min Rain = 0
KAM1 180922Z 21010KT 04/M04 A2987 RMK A01 T00381035  RH  059%=      5-min Rain = 0
KAM1 180923Z 22009KT 04/M04 A2987 RMK A01 T00371035  RH  059%=      5-min Rain = 0
KAM1 180924Z 22009KT 04/M04 A2987 RMK A01 T00371035  RH  059%=      5-min Rain = 0
KAM1 180925Z 22009KT 04/M04 A2987 RMK A01 T00381035  RH  059%=      5-min Rain = 0
KAM1 180926Z 22009KT 04/M04 A2987 RMK A01 T00381035  RH  059%=      5-min Rain = 0
KAM1 180927Z 22010KT 04/M04 A2987 RMK A01 T00381035  RH  059%=      5-min Rain = 0
KAM1 180928Z 22009KT 04/M04 A2987 RMK A01 T00391035  RH  059%=      5-min Rain = 0
KAM1 180929Z 22009KT 04/M04 A2987 RMK A01 T00391035  RH  059%=      5-min Rain = 0
KAM1 180930Z 22009KT 04/M04 A2987 RMK A01 T00391035  RH  058%=      5-min Rain = 0
KAM1 180931Z 22009KT 04/M04 A2987 RMK A01 T00401035  RH  058%=      5-min Rain = 0
KAM1 180932Z 22009KT 04/M04 A2987 RMK A01 T00411035  RH  058%=      5-min Rain = 0
KAM1 180933Z 23008KT 04/M04 A2987 RMK A01 T00411035  RH  058%=      5-min Rain = 0
KAM1 180934Z 22009KT 04/M04 A2987 RMK A01 T00411035  RH  058%=      5-min Rain = 0
KAM1 180935Z 22008KT 04/M04 A2987 RMK A01 T00421035  RH  057%=      5-min Rain = 0
KAM1 180936Z 23007KT 04/M04 A2987 RMK A01 T00421035  RH  057%=      5-min Rain = 0
KAM1 180937Z 22007KT 04/M04 A2987 RMK A01 T00421035  RH  057%=      5-min Rain = 0
KAM1 180938Z 22008KT 04/M04 A2987 RMK A01 T00421035  RH  057%=      5-min Rain = 0
KAM1 180939Z 23008KT 04/M04 A2987 RMK A01 T00421036  RH  057%=      5-min Rain = 0
KAM1 180940Z 22008KT 04/M04 A2987 RMK A01 T00421036  RH  057%=      5-min Rain = 0
KAM1 180941Z 22007KT 04/M04 A2987 RMK A01 T00421036  RH  057%=      5-min Rain = 0
KAM1 180942Z 21007KT 04/M04 A2987 RMK A01 T00411036  RH  057%=      5-min Rain = 0
KAM1 180943Z 21007KT 04/M04 A2987 RMK A01 T00401037  RH  057%=      5-min Rain = 0
KAM1 180944Z 21007KT 04/M04 A2986 RMK A01 T00401037  RH  057%=      5-min Rain = 0
KAM1 180945Z 21005KT 04/M04 A2987 RMK A01 T00401037  RH  057%=      5-min Rain = 0
KAM1 180946Z 22006KT 04/M04 A2987 RMK A01 T00391037  RH  058%=      5-min Rain = 0
KAM1 180947Z 22006KT 04/M04 A2987 RMK A01 T00381037  RH  058%=      5-min Rain = 0
KAM1 180948Z 23006KT 04/M04 A2987 RMK A01 T00381038  RH  058%=      5-min Rain = 0
KAM1 180949Z 22007KT 04/M04 A2986 RMK A01 T00371038  RH  058%=      5-min Rain = 0
KAM1 180950Z 21006KT 04/M04 A2986 RMK A01 T00371038  RH  058%=      5-min Rain = 0
KAM1 180951Z 21006KT 04/M04 A2986 RMK A01 T00361039  RH  058%=      5-min Rain = 0
KAM1 180952Z 20006KT 04/M04 A2986 RMK A01 T00351039  RH  059%=      5-min Rain = 0
KAM1 180953Z 20006KT 03/M04 A2986 RMK A01 T00331040  RH  059%=      5-min Rain = 0
KAM1 180954Z 20006KT 03/M04 A2986 RMK A01 T00311041  RH  059%=      5-min Rain = 0
KAM1 180955Z 20007KT 03/M04 A2986 RMK A01 T00291042  RH  060%=      5-min Rain = 0
KAM1 180956Z 20007KT 03/M04 A2986 RMK A01 T00271041  RH  061%=      5-min Rain = 0
KAM1 180957Z 20007KT 03/M04 A2986 RMK A01 T00271040  RH  061%=      5-min Rain = 0
KAM1 180958Z 20007KT 03/M04 A2985 RMK A01 T00271040  RH  062%=      5-min Rain = 0
KAM1 180959Z 21007KT 03/M04 A2985 RMK A01 T00261040  RH  062%=      5-min Rain = 0
KAM1 181000Z 21007KT 03/M04 A2985 RMK A01 T00261040  RH  062%=      5-min Rain = 0
KAM1 181001Z 21008KT 03/M04 A2985 RMK A01 T00251040  RH  062%=      5-min Rain = 0
KAM1 181002Z 21007KT 02/M04 A2985 RMK A01 T00241040  RH  062%=      5-min Rain = 0
KAM1 181003Z 21007KT 02/M04 A2985 RMK A01 T00241040  RH  063%=      5-min Rain = 0
KAM1 181004Z 21007KT 02/M04 A2985 RMK A01 T00231040  RH  063%=      5-min Rain = 0
KAM1 181005Z 21007KT 02/M04 A2985 RMK A01 T00231040  RH  063%=      5-min Rain = 0
KAM1 181006Z 20008KT 02/M04 A2985 RMK A01 T00231040  RH  063%=      5-min Rain = 0
KAM1 181007Z 21008KT 02/M04 A2985 RMK A01 T00231040  RH  063%=      5-min Rain = 0
KAM1 181008Z 21007KT 02/M04 A2985 RMK A01 T00231040  RH  063%=      5-min Rain = 0
KAM1 181009Z 21007KT 02/M04 A2985 RMK A01 T00231040  RH  063%=      5-min Rain = 0
KAM1 181010Z 20007KT 02/M04 A2985 RMK A01 T00241040  RH  063%=      5-min Rain = 0
KAM1 181011Z 20007KT 02/M04 A2985 RMK A01 T00231041  RH  063%=      5-min Rain = 0
KAM1 181012Z 20008KT 02/M04 A2985 RMK A01 T00221041  RH  063%=      5-min Rain = 0
KAM1 181013Z 21008KT 02/M04 A2985 RMK A01 T00221041  RH  063%=      5-min Rain = 0
KAM1 181014Z 21008KT 02/M04 A2985 RMK A01 T00221041  RH  063%=      5-min Rain = 0
KAM1 181015Z 21007KT 02/M04 A2985 RMK A01 T00231040  RH  063%=      5-min Rain = 0
KAM1 181016Z 21007KT 02/M04 A2984 RMK A01 T00231040  RH  063%=      5-min Rain = 0
KAM1 181017Z 21007KT 02/M04 A2984 RMK A01 T00241040  RH  063%=      5-min Rain = 0
KAM1 181018Z 22008KT 02/M04 A2984 RMK A01 T00231041  RH  063%=      5-min Rain = 0
KAM1 181019Z 22007KT 02/M04 A2984 RMK A01 T00231041  RH  062%=      5-min Rain = 0
KAM1 181020Z 21007KT 02/M04 A2984 RMK A01 T00231041  RH  063%=      5-min Rain = 0
KAM1 181021Z 21007KT 02/M04 A2984 RMK A01 T00231041  RH  062%=      5-min Rain = 0
KAM1 181022Z 21007KT 02/M04 A2984 RMK A01 T00231041  RH  062%=      5-min Rain = 0
KAM1 181023Z 21007KT 02/M04 A2984 RMK A01 T00231041  RH  062%=      5-min Rain = 0
KAM1 181024Z 21007KT 02/M04 A2984 RMK A01 T00231041  RH  062%=      5-min Rain = 0
KAM1 181025Z 21007KT 02/M04 A2984 RMK A01 T00231041  RH  062%=      5-min Rain = 0
KAM1 181026Z 21007KT 02/M04 A2984 RMK A01 T00231042  RH  062%=      5-min Rain = 0
KAM1 181027Z 21007KT 02/M04 A2983 RMK A01 T00231042  RH  062%=      5-min Rain = 0
KAM1 181028Z 21007KT 02/M04 A2984 RMK A01 T00221043  RH  062%=      5-min Rain = 0
KAM1 181029Z 20007KT 02/M04 A2983 RMK A01 T00211043  RH  062%=      5-min Rain = 0
KAM1 181030Z 20007KT 02/M04 A2983 RMK A01 T00201043  RH  063%=      5-min Rain = 0
KAM1 181031Z 20007KT 02/M04 A2983 RMK A01 T00191044  RH  063%=      5-min Rain = 0
KAM1 181032Z 20008KT 02/M04 A2983 RMK A01 T00181044  RH  063%=      5-min Rain = 0
KAM1 181033Z 19008KT 02/M04 A2983 RMK A01 T00181044  RH  064%=      5-min Rain = 0
KAM1 181034Z 19008KT 02/M04 A2983 RMK A01 T00171044  RH  064%=      5-min Rain = 0
KAM1 181035Z 20008KT 02/M05 A2983 RMK A01 T00151045  RH  064%=      5-min Rain = 0
KAM1 181036Z 20008KT 01/M05 A2983 RMK A01 T00141045  RH  065%=      5-min Rain = 0
KAM1 181037Z 20007KT 01/M05 A2983 RMK A01 T00131045  RH  065%=      5-min Rain = 0
KAM1 181038Z 20007KT 01/M05 A2983 RMK A01 T00131045  RH  065%=      5-min Rain = 0
KAM1 181039Z 21008KT 01/M04 A2983 RMK A01 T00131044  RH  065%=      5-min Rain = 0
KAM1 181040Z 21007KT 01/M04 A2983 RMK A01 T00131044  RH  066%=      5-min Rain = 0
KAM1 181041Z 21007KT 01/M04 A2983 RMK A01 T00141043  RH  066%=      5-min Rain = 0
KAM1 181042Z 21007KT 02/M04 A2982 RMK A01 T00151042  RH  065%=      5-min Rain = 0
KAM1 181043Z 21007KT 02/M04 A2982 RMK A01 T00161042  RH  065%=      5-min Rain = 0
KAM1 181044Z 21007KT 02/M04 A2982 RMK A01 T00161042  RH  065%=      5-min Rain = 0
KAM1 181045Z 21007KT 02/M04 A2982 RMK A01 T00171042  RH  065%=      5-min Rain = 0
KAM1 181046Z 21007KT 02/M04 A2981 RMK A01 T00171042  RH  065%=      5-min Rain = 0
KAM1 181047Z 21006KT 02/M04 A2981 RMK A01 T00171043  RH  065%=      5-min Rain = 0
KAM1 181048Z 21007KT 02/M04 A2981 RMK A01 T00171043  RH  064%=      5-min Rain = 0
KAM1 181049Z 22007KT 02/M04 A2981 RMK A01 T00181042  RH  065%=      5-min Rain = 0
KAM1 181050Z 22007KT 02/M04 A2982 RMK A01 T00181042  RH  064%=      5-min Rain = 0
KAM1 181051Z 22007KT 02/M04 A2982 RMK A01 T00191041  RH  064%=      5-min Rain = 0
KAM1 181052Z 22007KT 02/M04 A2981 RMK A01 T00201041  RH  064%=      5-min Rain = 0
KAM1 181053Z 22007KT 02/M04 A2981 RMK A01 T00221040  RH  064%=      5-min Rain = 0
KAM1 181054Z 23007KT 02/M04 A2981 RMK A01 T00241038  RH  063%=      5-min Rain = 0
KAM1 181055Z 23007KT 03/M04 A2981 RMK A01 T00251038  RH  063%=      5-min Rain = 0
KAM1 181056Z 23008KT 03/M04 A2981 RMK A01 T00261038  RH  063%=      5-min Rain = 0
KAM1 181057Z 23008KT 03/M04 A2981 RMK A01 T00271038  RH  062%=      5-min Rain = 0
KAM1 181058Z 23008KT 03/M04 A2981 RMK A01 T00291037  RH  062%=      5-min Rain = 0
KAM1 181059Z 23008KT 03/M04 A2981 RMK A01 T00301037  RH  061%=      5-min Rain = 0
KAM1 181100Z 23008KT 03/M04 A2981 RMK A01 T00311037  RH  061%=      5-min Rain = 0
KAM1 181101Z 23008KT 03/M04 A2981 RMK A01 T00331036  RH  060%=      5-min Rain = 0
KAM1 181102Z 23008KT 04/M04 A2981 RMK A01 T00351036  RH  060%=      5-min Rain = 0
KAM1 181103Z 23008KT 04/M04 A2981 RMK A01 T00371036  RH  059%=      5-min Rain = 0
KAM1 181104Z 23008KT 04/M04 A298 RMK A01 T00391036  RH  058%=      5-min Rain = 0
KAM1 181105Z 23008KT 04/M04 A298 RMK A01 T00411036  RH  057%=      5-min Rain = 0
KAM1 181106Z 23008KT 04/M04 A298 RMK A01 T00421036  RH  057%=      5-min Rain = 0
KAM1 181107Z 23008KT 04/M04 A298 RMK A01 T00431036  RH  056%=      5-min Rain = 0
KAM1 181108Z 23008KT 04/M04 A298 RMK A01 T00431036  RH  056%=      5-min Rain = 0
KAM1 181109Z 23007KT 04/M04 A298 RMK A01 T00441036  RH  056%=      5-min Rain = 0
KAM1 181110Z 23007KT 05/M04 A298 RMK A01 T00451037  RH  055%=      5-min Rain = 0
KAM1 181111Z 23007KT 05/M04 A298 RMK A01 T00451037  RH  055%=      5-min Rain = 0
KAM1 181112Z 23007KT 05/M04 A298 RMK A01 T00451037  RH  055%=      5-min Rain = 0
KAM1 181113Z 23007KT 05/M04 A298 RMK A01 T00451037  RH  055%=      5-min Rain = 0
KAM1 181114Z 23007KT 05/M04 A298 RMK A01 T00451038  RH  055%=      5-min Rain = 0
KAM1 181115Z 23007KT 05/M04 A298 RMK A01 T00451038  RH  055%=      5-min Rain = 0
KAM1 181116Z 23007KT 05/M04 A2979 RMK A01 T00451038  RH  055%=      5-min Rain = 0
KAM1 181117Z 23007KT 05/M04 A2979 RMK A01 T00461038  RH  055%=      5-min Rain = 0
KAM1 181118Z 23007KT 05/M04 A2979 RMK A01 T00461038  RH  054%=      5-min Rain = 0
KAM1 181119Z 23007KT 05/M04 A2979 RMK A01 T00471038  RH  054%=      5-min Rain = 0
KAM1 181120Z 23008KT 05/M04 A2979 RMK A01 T00481037  RH  054%=      5-min Rain = 0
KAM1 181121Z 23008KT 05/M04 A2979 RMK A01 T00491037  RH  054%=      5-min Rain = 0
KAM1 181122Z 23008KT 05/M04 A2979 RMK A01 T00491037  RH  053%=      5-min Rain = 0
KAM1 181123Z 23009KT 05/M04 A2979 RMK A01 T00511036  RH  053%=      5-min Rain = 0
KAM1 181124Z 23008KT 05/M04 A2979 RMK A01 T00521036  RH  053%=      5-min Rain = 0
KAM1 181125Z 23009KT 05/M04 A2979 RMK A01 T00531035  RH  053%=      5-min Rain = 0
KAM1 181126Z 23009KT 05/M04 A2979 RMK A01 T00541035  RH  053%=      5-min Rain = 0
KAM1 181127Z 23009KT 06/M04 A2978 RMK A01 T00551035  RH  052%=      5-min Rain = 0
KAM1 181128Z 23009KT 06/M04 A2978 RMK A01 T00561035  RH  052%=      5-min Rain = 0
KAM1 181129Z 23010KT 06/M04 A2978 RMK A01 T00571035  RH  052%=      5-min Rain = 0
KAM1 181130Z 23009KT 06/M04 A2978 RMK A01 T00571036  RH  051%=      5-min Rain = 0
KAM1 181131Z 22011KT 06/M04 A2978 RMK A01 T00581035  RH  051%=      5-min Rain = 0
KAM1 181132Z 23009KT 06/M04 A2978 RMK A01 T00591036  RH  051%=      5-min Rain = 0
KAM1 181133Z 23010KT 06/M04 A2978 RMK A01 T00591036  RH  050%=      5-min Rain = 0
KAM1 181134Z 23011KT 06/M04 A2978 RMK A01 T00591036  RH  050%=      5-min Rain = 0
KAM1 181135Z 23010KT 06/M04 A2978 RMK A01 T00601036  RH  050%=      5-min Rain = 0
KAM1 181136Z 23010KT 06/M04 A2978 RMK A01 T00601036  RH  050%=      5-min Rain = 0
KAM1 181137Z 23010KT 06/M04 A2977 RMK A01 T00601036  RH  050%=      5-min Rain = 0
KAM1 181138Z 23010KT 06/M04 A2977 RMK A01 T00601036  RH  050%=      5-min Rain = 0
KAM1 181139Z 23011KT 06/M04 A2977 RMK A01 T00601036  RH  050%=      5-min Rain = 0
KAM1 181140Z 23011KT 06/M04 A2977 RMK A01 T00611036  RH  050%=      5-min Rain = 0
KAM1 181141Z 23011KT 06/M04 A2977 RMK A01 T00611036  RH  050%=      5-min Rain = 0
KAM1 181142Z 23010KT 06/M04 A2977 RMK A01 T00621035  RH  050%=      5-min Rain = 0
KAM1 181143Z 23011KT 06/M04 A2977 RMK A01 T00621035  RH  050%=      5-min Rain = 0
KAM1 181144Z 23011KT 06/M04 A2977 RMK A01 T00621035  RH  050%=      5-min Rain = 0
KAM1 181145Z 23011KT 06/M04 A2977 RMK A01 T00631035  RH  050%=      5-min Rain = 0
KAM1 181146Z 23011KT 07/M03 A2977 RMK A01 T00651034  RH  049%=      5-min Rain = 0
KAM1 181147Z 23011KT 07/M03 A2977 RMK A01 T00651034  RH  049%=      5-min Rain = 0
KAM1 181148Z 23010KT 07/M04 A2977 RMK A01 T00651035  RH  049%=      5-min Rain = 0
KAM1 181149Z 23011KT 07/M04 A2977 RMK A01 T00651035  RH  049%=      5-min Rain = 0
KAM1 181150Z 23011KT 07/M04 A2977 RMK A01 T00651035  RH  049%=      5-min Rain = 0
KAM1 181151Z 23012KT 07/M04 A2977 RMK A01 T00661035  RH  049%=      5-min Rain = 0
KAM1 181152Z 23012KT 07/M03 A2977 RMK A01 T00661034  RH  049%=      5-min Rain = 0
KAM1 181153Z 23011KT 07/M03 A2977 RMK A01 T00661034  RH  049%=      5-min Rain = 0
KAM1 181154Z 23010KT 07/M03 A2977 RMK A01 T00661034  RH  049%=      5-min Rain = 0
KAM1 181155Z 23011KT 07/M03 A2977 RMK A01 T00661034  RH  049%=      5-min Rain = 0
KAM1 181156Z 23011KT 07/M03 A2977 RMK A01 T00651034  RH  049%=      5-min Rain = 0
KAM1 181157Z 23010KT 07/M03 A2977 RMK A01 T00661034  RH  049%=      5-min Rain = 0
KAM1 181158Z 23011KT 07/M03 A2976 RMK A01 T00661034  RH  049%=      5-min Rain = 0
KAM1 181159Z 23012KT 07/M03 A2976 RMK A01 T00661034  RH  049%=      5-min Rain = 0
KAM1 181200Z 23012KT 07/M03 A2977 RMK A01 T00661034  RH  049%=      5-min Rain = 0
KAM1 181201Z 23011KT 07/M03 A2977 RMK A01 T00671034  RH  049%=      5-min Rain = 0
KAM1 181202Z 23011KT 07/M03 A2977 RMK A01 T00671033  RH  049%=      5-min Rain = 0
KAM1 181203Z 22011KT 07/M03 A2977 RMK A01 T00661033  RH  049%=      5-min Rain = 0
KAM1 181204Z 23010KT 07/M03 A2977 RMK A01 T00651034  RH  049%=      5-min Rain = 0
KAM1 181205Z 23012KT 07/M03 A2976 RMK A01 T00651033  RH  049%=      5-min Rain = 0
KAM1 181206Z 23013KT 07/M03 A2976 RMK A01 T00661033  RH  049%=      5-min Rain = 0
KAM1 181207Z 24012KT 07/M03 A2977 RMK A01 T00681032  RH  049%=      5-min Rain = 0
KAM1 181208Z 23013KT 07/M03 A2976 RMK A01 T00691032  RH  049%=      5-min Rain = 0
KAM1 181209Z 24012KT 07/M03 A2977 RMK A01 T00701031  RH  049%=      5-min Rain = 0
KAM1 181210Z 24011KT 07/M03 A2977 RMK A01 T00701031  RH  048%=      5-min Rain = 0
KAM1 181211Z 24014KT 07/M03 A2977 RMK A01 T00701032  RH  048%=      5-min Rain = 0
KAM1 181212Z 24013KT 07/M03 A2977 RMK A01 T00711031  RH  048%=      5-min Rain = 0
KAM1 181213Z 24012KT 07/M03 A2977 RMK A01 T00711031  RH  048%=      5-min Rain = 0
KAM1 181214Z 25012KT 07/M03 A2978 RMK A01 T00721031  RH  048%=      5-min Rain = 0
KAM1 181215Z 25011KT 07/M03 A2978 RMK A01 T00711031  RH  048%=      5-min Rain = 0
KAM1 181216Z 25011KT 07/M03 A2978 RMK A01 T00711031  RH  048%=      5-min Rain = 0
KAM1 181217Z 25010KT 07/M03 A2978 RMK A01 T00691031  RH  049%=      5-min Rain = 0
KAM1 181218Z 25010KT 07/M03 A2978 RMK A01 T00691031  RH  049%=      5-min Rain = 0
KAM1 181219Z 24009KT 07/M03 A2978 RMK A01 T00681031  RH  049%=      5-min Rain = 0
KAM1 181220Z 25009KT 07/M03 A2978 RMK A01 T00671031  RH  049%=      5-min Rain = 0
KAM1 181221Z 24009KT 07/M03 A2977 RMK A01 T00671031  RH  049%=      5-min Rain = 0
KAM1 181222Z 24010KT 07/M03 A2977 RMK A01 T00681031  RH  049%=      5-min Rain = 0
KAM1 181223Z 23010KT 07/M03 A2977 RMK A01 T00681031  RH  049%=      5-min Rain = 0
KAM1 181224Z 24010KT 07/M03 A2977 RMK A01 T00681031  RH  049%=      5-min Rain = 0
KAM1 181225Z 23011KT 07/M03 A2977 RMK A01 T00701030  RH  049%=      5-min Rain = 0
KAM1 181226Z 23010KT 07/M03 A2977 RMK A01 T00721029  RH  049%=      5-min Rain = 0
KAM1 181227Z 24011KT 07/M03 A2977 RMK A01 T00721030  RH  048%=      5-min Rain = 0
KAM1 181228Z 23011KT 07/M03 A2977 RMK A01 T00731029  RH  048%=      5-min Rain = 0
KAM1 181229Z 24010KT 07/M03 A2977 RMK A01 T00741029  RH  048%=      5-min Rain = 0
KAM1 181230Z 24012KT 07/M03 A2977 RMK A01 T00731029  RH  048%=      5-min Rain = 0
KAM1 181231Z 23013KT 07/M03 A2977 RMK A01 T00731029  RH  048%=      5-min Rain = 0
KAM1 181232Z 24013KT 07/M03 A2977 RMK A01 T00741028  RH  048%=      5-min Rain = 0
KAM1 181233Z 23012KT 08/M03 A2977 RMK A01 T00761028  RH  048%=      5-min Rain = 0
KAM1 181234Z 23013KT 08/M03 A2977 RMK A01 T00761028  RH  048%=      5-min Rain = 0
KAM1 181235Z 23013G18KT 08/M03 A2977 RMK A01 T00781028  RH  047%=      5-min Rain = 0
KAM1 181236Z 23014KT 08/M03 A2977 RMK A01 T00781027  RH  047%=      5-min Rain = 0
KAM1 181237Z 23013KT 08/M03 A2977 RMK A01 T00781028  RH  047%=      5-min Rain = 0
KAM1 181238Z 23013KT 08/M03 A2977 RMK A01 T00791027  RH  047%=      5-min Rain = 0
KAM1 181239Z 23012KT 08/M03 A2977 RMK A01 T00791027  RH  047%=      5-min Rain = 0
KAM1 181240Z 23013KT 08/M03 A2976 RMK A01 T00801027  RH  047%=      5-min Rain = 0
KAM1 181241Z 23013KT 08/M03 A2976 RMK A01 T00801027  RH  047%=      5-min Rain = 0
KAM1 181242Z 24013KT 08/M03 A2976 RMK A01 T00811027  RH  047%=      5-min Rain = 0
KAM1 181243Z 23014KT 08/M03 A2976 RMK A01 T00811026  RH  046%=      5-min Rain = 0
KAM1 181244Z 23014KT 08/M03 A2976 RMK A01 T00821026  RH  046%=      5-min Rain = 0
KAM1 181245Z 23012KT 08/M03 A2976 RMK A01 T00821026  RH  046%=      5-min Rain = 0
KAM1 181246Z 23015KT 08/M03 A2976 RMK A01 T00821026  RH  046%=      5-min Rain = 0
KAM1 181247Z 23013KT 08/M03 A2976 RMK A01 T00821026  RH  046%=      5-min Rain = 0
KAM1 181248Z 23013KT 08/M03 A2976 RMK A01 T00821026  RH  046%=      5-min Rain = 0
KAM1 181249Z 23014KT 08/M03 A2976 RMK A01 T00821026  RH  046%=      5-min Rain = 0
KAM1 181250Z 23012KT 08/M03 A2975 RMK A01 T00821026  RH  046%=      5-min Rain = 0
KAM1 181251Z 23014KT 08/M03 A2975 RMK A01 T00821026  RH  047%=      5-min Rain = 0
KAM1 181252Z 23013KT 08/M03 A2975 RMK A01 T00821026  RH  047%=      5-min Rain = 0
KAM1 181253Z 23014KT 08/M03 A2975 RMK A01 T00811026  RH  047%=      5-min Rain = 0
KAM1 181254Z 23015KT 08/M03 A2975 RMK A01 T00811026  RH  047%=      5-min Rain = 0
KAM1 181255Z 23014KT 08/M03 A2975 RMK A01 T00821025  RH  047%=      5-min Rain = 0
KAM1 181256Z 23015KT 08/M03 A2975 RMK A01 T00821025  RH  047%=      5-min Rain = 0
KAM1 181257Z 23015KT 08/M03 A2975 RMK A01 T00821025  RH  047%=      5-min Rain = 0
KAM1 181258Z 23015KT 08/M03 A2975 RMK A01 T00821025  RH  047%=      5-min Rain = 0
KAM1 181259Z 23013KT 08/M03 A2975 RMK A01 T00821025  RH  047%=      5-min Rain = 0
KAM1 181300Z 23014KT 08/M03 A2975 RMK A01 T00821025  RH  047%=      5-min Rain = 0
KAM1 181301Z 23013KT 08/M03 A2975 RMK A01 T00821025  RH  047%=      5-min Rain = 0
KAM1 181302Z 23015KT 08/M03 A2975 RMK A01 T00821025  RH  047%=      5-min Rain = 0
KAM1 181303Z 22014KT 08/M03 A2975 RMK A01 T00821025  RH  047%=      5-min Rain = 0
KAM1 181304Z 22014KT 08/M03 A2975 RMK A01 T00831025  RH  047%=      5-min Rain = 0
KAM1 181305Z 23015KT 08/M02 A2975 RMK A01 T00831024  RH  047%=      5-min Rain = 0
KAM1 181306Z 22014KT 08/M02 A2975 RMK A01 T00831024  RH  047%=      5-min Rain = 0
KAM1 181307Z 22014KT 08/M02 A2975 RMK A01 T00831024  RH  047%=      5-min Rain = 0
KAM1 181308Z 22013KT 08/M02 A2975 RMK A01 T00831024  RH  047%=      5-min Rain = 0
KAM1 181309Z 23014KT 08/M02 A2975 RMK A01 T00821024  RH  047%=      5-min Rain = 0
KAM1 181310Z 23013G18KT 08/M02 A2975 RMK A01 T00821024  RH  047%=      5-min Rain = 0
KAM1 181311Z 23014KT 08/M02 A2975 RMK A01 T00821024  RH  047%=      5-min Rain = 0
KAM1 181312Z 23013KT 08/M02 A2975 RMK A01 T00821024  RH  047%=      5-min Rain = 0
KAM1 181313Z 23013KT 08/M02 A2975 RMK A01 T00821024  RH  047%=      5-min Rain = 0
KAM1 181314Z 23015KT 08/M02 A2975 RMK A01 T00821023  RH  047%=      5-min Rain = 0
KAM1 181315Z 23016KT 08/M02 A2975 RMK A01 T00831023  RH  047%=      5-min Rain = 0
KAM1 181316Z 23016KT 08/M02 A2975 RMK A01 T00841022  RH  047%=      5-min Rain = 0
KAM1 181317Z 23015KT 09/M02 A2975 RMK A01 T00851022  RH  047%=      5-min Rain = 0
KAM1 181318Z 23015KT 09/M02 A2975 RMK A01 T00861022  RH  047%=      5-min Rain = 0
KAM1 181319Z 23013KT 09/M02 A2975 RMK A01 T00861022  RH  047%=      5-min Rain = 0
KAM1 181320Z 23015KT 09/M02 A2975 RMK A01 T00861022  RH  047%=      5-min Rain = 0
KAM1 181321Z 23015KT 09/M02 A2975 RMK A01 T00861022  RH  047%=      5-min Rain = 0
KAM1 181322Z 23013KT 09/M02 A2975 RMK A01 T00861022  RH  047%=      5-min Rain = 0
KAM1 181323Z 24016G23KT 09/M02 A2975 RMK A01 T00861022  RH  047%=      5-min Rain = 0
KAM1 181324Z 24016KT 09/M02 A2976 RMK A01 T00861022  RH  047%=      5-min Rain = 0
KAM1 181325Z 24014KT 09/M02 A2976 RMK A01 T00861022  RH  047%=      5-min Rain = 0
KAM1 181326Z 24015KT 09/M02 A2976 RMK A01 T00861022  RH  047%=      5-min Rain = 0
KAM1 181327Z 24017KT 09/M02 A2976 RMK A01 T00861022  RH  047%=      5-min Rain = 0
KAM1 181328Z 24015KT 09/M02 A2976 RMK A01 T00871022  RH  046%=      5-min Rain = 0
KAM1 181329Z 24015KT 09/M02 A2976 RMK A01 T00871022  RH  046%=      5-min Rain = 0
KAM1 181330Z 24013G18KT 09/M02 A2976 RMK A01 T00871022  RH  046%=      5-min Rain = 0
KAM1 181331Z 24014KT 09/M02 A2976 RMK A01 T00861022  RH  047%=      5-min Rain = 0
KAM1 181332Z 24014KT 09/M02 A2976 RMK A01 T00861022  RH  047%=      5-min Rain = 0
KAM1 181333Z 24014KT 09/M02 A2976 RMK A01 T00861022  RH  047%=      5-min Rain = 0
KAM1 181334Z 24015KT 09/M02 A2976 RMK A01 T00861022  RH  047%=      5-min Rain = 0
KAM1 181335Z 24016KT 09/M02 A2975 RMK A01 T00861022  RH  047%=      5-min Rain = 0
KAM1 181336Z 24017KT 09/M02 A2975 RMK A01 T00861022  RH  047%=      5-min Rain = 0
KAM1 181337Z 24015G23KT 09/M02 A2975 RMK A01 T00861022  RH  046%=      5-min Rain = 0
KAM1 181338Z 24017G22KT 09/M02 A2975 RMK A01 T00861022  RH  046%=      5-min Rain = 0
KAM1 181339Z 24015KT 09/M02 A2975 RMK A01 T00871022  RH  046%=      5-min Rain = 0
KAM1 181340Z 24016KT 09/M02 A2975 RMK A01 T00871022  RH  046%=      5-min Rain = 0
KAM1 181341Z 24016KT 09/M02 A2975 RMK A01 T00871023  RH  046%=      5-min Rain = 0
KAM1 181342Z 24018KT 09/M02 A2975 RMK A01 T00871023  RH  046%=      5-min Rain = 0
KAM1 181343Z 24016KT 09/M02 A2975 RMK A01 T00881023  RH  046%=      5-min Rain = 0
KAM1 181344Z 25017KT 09/M02 A2975 RMK A01 T00891022  RH  046%=      5-min Rain = 0
KAM1 181345Z 24019KT 09/M02 A2975 RMK A01 T00891022  RH  046%=      5-min Rain = 0
KAM1 181346Z 25018G23KT 09/M02 A2975 RMK A01 T00901022  RH  045%=      5-min Rain = 0
KAM1 181347Z 25017G24KT 09/M02 A2975 RMK A01 T00911022  RH  045%=      5-min Rain = 0
KAM1 181348Z 25020KT 09/M02 A2974 RMK A01 T00911022  RH  045%=      5-min Rain = 0
KAM1 181349Z 25017G23KT 09/M02 A2975 RMK A01 T00931021  RH  045%=      5-min Rain = 0
KAM1 181350Z 25019G24KT 09/M02 A2974 RMK A01 T00931022  RH  045%=      5-min Rain = 0
KAM1 181351Z 24018G23KT 09/M02 A2975 RMK A01 T00931022  RH  045%=      5-min Rain = 0
KAM1 181352Z 24016KT 09/M02 A2975 RMK A01 T00931022  RH  045%=      5-min Rain = 0
KAM1 181353Z 25018G24KT 09/M02 A2975 RMK A01 T00931021  RH  045%=      5-min Rain = 0
KAM1 181354Z 24018G23KT 09/M02 A2975 RMK A01 T00931022  RH  045%=      5-min Rain = 0
KAM1 181355Z 24016KT 09/M02 A2975 RMK A01 T00931021  RH  045%=      5-min Rain = 0
KAM1 181356Z 24020KT 09/M02 A2975 RMK A01 T00931021  RH  045%=      5-min Rain = 0
KAM1 181357Z 24021G26KT 09/M02 A2975 RMK A01 T00941021  RH  044%=      5-min Rain = 0
KAM1 181358Z 24020KT 10/M02 A2975 RMK A01 T00951021  RH  044%=      5-min Rain = 0
KAM1 181359Z 24018KT 10/M02 A2975 RMK A01 T00951021  RH  044%=      5-min Rain = 0
KAM1 181400Z 25020G25KT 09/M02 A2975 RMK A01 T00941021  RH  044%=      5-min Rain = 0
KAM1 181401Z 24018KT 09/M02 A2975 RMK A01 T00941021  RH  044%=      5-min Rain = 0
KAM1 181402Z 24016G22KT 09/M02 A2975 RMK A01 T00941021  RH  044%=      5-min Rain = 0
KAM1 181403Z 25018KT 09/M02 A2975 RMK A01 T00941021  RH  044%=      5-min Rain = 0
KAM1 181404Z 24022G28KT 09/M02 A2975 RMK A01 T00931022  RH  044%=      5-min Rain = 0
KAM1 181405Z 24020G25KT 09/M02 A2975 RMK A01 T00941021  RH  044%=      5-min Rain = 0
KAM1 181406Z 25018KT 09/M02 A2975 RMK A01 T00941021  RH  044%=      5-min Rain = 0
KAM1 181407Z 25019G24KT 10/M02 A2975 RMK A01 T00951021  RH  044%=      5-min Rain = 0
KAM1 181408Z 24016G21KT 10/M02 A2975 RMK A01 T00951021  RH  044%=      5-min Rain = 0
KAM1 181409Z 25018KT 09/M02 A2975 RMK A01 T00941020  RH  044%=      5-min Rain = 0
KAM1 181410Z 25019KT 09/M02 A2975 RMK A01 T00941021  RH  045%=      5-min Rain = 0
KAM1 181411Z 25016KT 09/M02 A2975 RMK A01 T00941021  RH  045%=      5-min Rain = 0
KAM1 181412Z 25018G23KT 09/M02 A2975 RMK A01 T00941020  RH  045%=      5-min Rain = 0
KAM1 181413Z 25019KT 09/M02 A2975 RMK A01 T00941020  RH  045%=      5-min Rain = 0
KAM1 181414Z 25018G24KT 09/M02 A2975 RMK A01 T00941020  RH  045%=      5-min Rain = 0
KAM1 181415Z 25017KT 09/M02 A2975 RMK A01 T00941020  RH  045%=      5-min Rain = 0
KAM1 181416Z 25017G23KT 09/M02 A2975 RMK A01 T00941019  RH  045%=      5-min Rain = 0
KAM1 181417Z 25017KT 09/M02 A2975 RMK A01 T00941019  RH  045%=      5-min Rain = 0
KAM1 181418Z 25017KT 09/M02 A2975 RMK A01 T00941019  RH  045%=      5-min Rain = 0
KAM1 181419Z 25019KT 09/M02 A2975 RMK A01 T00941019  RH  045%=      5-min Rain = 0
KAM1 181420Z 25020KT 10/M02 A2975 RMK A01 T00951019  RH  045%=      5-min Rain = 0
KAM1 181421Z 25018KT 10/M02 A2975 RMK A01 T00951019  RH  045%=      5-min Rain = 0
KAM1 181422Z 25016KT 10/M02 A2975 RMK A01 T00961019  RH  045%=      5-min Rain = 0
KAM1 181423Z 25016KT 10/M02 A2975 RMK A01 T00951019  RH  045%=      5-min Rain = 0
KAM1 181424Z 26016KT 10/M02 A2975 RMK A01 T00951019  RH  045%=      5-min Rain = 0
KAM1 181425Z 26018KT 09/M02 A2976 RMK A01 T00941019  RH  045%=      5-min Rain = 0
KAM1 181426Z 26017G23KT 09/M02 A2976 RMK A01 T00941019  RH  045%=      5-min Rain = 0
KAM1 181427Z 25021KT 09/M02 A2975 RMK A01 T00941019  RH  045%=      5-min Rain = 0
KAM1 181428Z 26017KT 10/M02 A2975 RMK A01 T00951019  RH  045%=      5-min Rain = 0
KAM1 181429Z 26017KT 09/M02 A2975 RMK A01 T00941019  RH  045%=      5-min Rain = 0
KAM1 181430Z 25019KT 09/M02 A2975 RMK A01 T00941018  RH  045%=      5-min Rain = 0
KAM1 181431Z 25017KT 09/M02 A2975 RMK A01 T00941018  RH  045%=      5-min Rain = 0
KAM1 181432Z 26019KT 09/M02 A2975 RMK A01 T00941018  RH  046%=      5-min Rain = 0
KAM1 181433Z 26017KT 09/M02 A2975 RMK A01 T00941018  RH  046%=      5-min Rain = 0
KAM1 181434Z 25019KT 09/M02 A2975 RMK A01 T00931017  RH  046%=      5-min Rain = 0
KAM1 181435Z 25016KT 09/M02 A2975 RMK A01 T00931017  RH  046%=      5-min Rain = 0
KAM1 181436Z 26016G21KT 09/M02 A2975 RMK A01 T00931017  RH  046%=      5-min Rain = 0
KAM1 181437Z 25018KT 09/M02 A2975 RMK A01 T00941016  RH  046%=      5-min Rain = 0
KAM1 181438Z 25021KT 10/M02 A2975 RMK A01 T00951015  RH  046%=      5-min Rain = 0
KAM1 181439Z 25019KT 10/M02 A2975 RMK A01 T00961015  RH  046%=      5-min Rain = 0
KAM1 181440Z 25019KT 10/M02 A2975 RMK A01 T00961015  RH  046%=      5-min Rain = 0
KAM1 181441Z 25016G22KT 10/M01 A2975 RMK A01 T00971014  RH  046%=      5-min Rain = 0
KAM1 181442Z 25015G22KT 10/M01 A2975 RMK A01 T00971013  RH  046%=      5-min Rain = 0
KAM1 181443Z 25015KT 10/M01 A2975 RMK A01 T00971013  RH  046%=      5-min Rain = 0
KAM1 181444Z 25017KT 10/M01 A2975 RMK A01 T00971013  RH  046%=      5-min Rain = 0
KAM1 181445Z 25017G22KT 10/M01 A2975 RMK A01 T00981012  RH  046%=      5-min Rain = 0
KAM1 181446Z 26019KT 10/M01 A2974 RMK A01 T00981012  RH  046%=      5-min Rain = 0
KAM1 181447Z 25019G25KT 10/M01 A2975 RMK A01 T01001012  RH  046%=      5-min Rain = 0
KAM1 181448Z 25018G23KT 10/M01 A2975 RMK A01 T01001011  RH  046%=      5-min Rain = 0
KAM1 181449Z 26015G23KT 10/M01 A2975 RMK A01 T01011011  RH  046%=      5-min Rain = 0
KAM1 181450Z 26014KT 10/M01 A2975 RMK A01 T01011011  RH  046%=      5-min Rain = 0
KAM1 181451Z 26015G20KT 10/M01 A2975 RMK A01 T01011010  RH  046%=      5-min Rain = 0
KAM1 181452Z 26018KT 10/M01 A2975 RMK A01 T01011010  RH  046%=      5-min Rain = 0
KAM1 181453Z 26017KT 10/M01 A2975 RMK A01 T01021010  RH  046%=      5-min Rain = 0
KAM1 181454Z 25016KT 10/M01 A2974 RMK A01 T01021010  RH  046%=      5-min Rain = 0
KAM1 181455Z 25017G22KT 10/M01 A2974 RMK A01 T01021009  RH  046%=      5-min Rain = 0
KAM1 181456Z 26018KT 10/M01 A2974 RMK A01 T01031009  RH  046%=      5-min Rain = 0
KAM1 181457Z 26019KT 10/M01 A2974 RMK A01 T01031009  RH  046%=      5-min Rain = 0
KAM1 181458Z 25018G23KT 10/M01 A2974 RMK A01 T01041009  RH  046%=      5-min Rain = 0
KAM1 181459Z 25018KT 10/M01 A2974 RMK A01 T01041008  RH  046%=      5-min Rain = 0
KAM1 181500Z 25018KT 10/M01 A2974 RMK A01 T01041008  RH  046%=      5-min Rain = 0
KAM1 181501Z 25020KT 11/M01 A2974 RMK A01 T01051008  RH  046%=      5-min Rain = 0
KAM1 181502Z 25020G27KT 11/M01 A2974 RMK A01 T01061007  RH  046%=      5-min Rain = 0
KAM1 181503Z 25020KT 11/M01 A2974 RMK A01 T01061007  RH  045%=      5-min Rain = 0
KAM1 181504Z 25018KT 11/M01 A2974 RMK A01 T01061007  RH  045%=      5-min Rain = 0
KAM1 181505Z 25019KT 11/M01 A2974 RMK A01 T01061007  RH  046%=      5-min Rain = 0
KAM1 181506Z 25018KT 11/M01 A2974 RMK A01 T01061006  RH  046%=      5-min Rain = 0
KAM1 181507Z 25018KT 11/M01 A2974 RMK A01 T01061006  RH  046%=      5-min Rain = 0
KAM1 181508Z 25021G26KT 11/M01 A2974 RMK A01 T01061006  RH  046%=      5-min Rain = 0
KAM1 181509Z 24019KT 11/M01 A2974 RMK A01 T01071006  RH  046%=      5-min Rain = 0
KAM1 181510Z 25018KT 11/M01 A2974 RMK A01 T01071005  RH  046%=      5-min Rain = 0
KAM1 181511Z 25017G23KT 11/M01 A2974 RMK A01 T01081005  RH  046%=      5-min Rain = 0
KAM1 181512Z 25021KT 11/M01 A2974 RMK A01 T01081005  RH  046%=      5-min Rain = 0
KAM1 181513Z 25022KT 11/M01 A2974 RMK A01 T01081005  RH  046%=      5-min Rain = 0
KAM1 181514Z 25022KT 11/M01 A2974 RMK A01 T01081005  RH  045%=      5-min Rain = 0
KAM1 181515Z 25019KT 11/M01 A2974 RMK A01 T01081005  RH  046%=      5-min Rain = 0
KAM1 181516Z 25019G25KT 11/M01 A2974 RMK A01 T01081005  RH  046%=      5-min Rain = 0
KAM1 181517Z 25019G24KT 11/M00 A2974 RMK A01 T01081004  RH  046%=      5-min Rain = 0
KAM1 181518Z 25017G23KT 11/M00 A2974 RMK A01 T01081004  RH  046%=      5-min Rain = 0
KAM1 181519Z 25019G24KT 11/M00 A2974 RMK A01 T01081004  RH  046%=      5-min Rain = 0
KAM1 181520Z 26018KT 11/M00 A2974 RMK A01 T01081004  RH  046%=      5-min Rain = 0
KAM1 181521Z 25016KT 11/M00 A2974 RMK A01 T01071004  RH  046%=      5-min Rain = 0
KAM1 181522Z 25020G25KT 11/M00 A2974 RMK A01 T01071004  RH  046%=      5-min Rain = 0
KAM1 181523Z 25018KT 11/M00 A2974 RMK A01 T01071004  RH  046%=      5-min Rain = 0
KAM1 181524Z 25018KT 11/M00 A2974 RMK A01 T01061004  RH  047%=      5-min Rain = 0
KAM1 181525Z 25019G26KT 11/M00 A2974 RMK A01 T01061003  RH  047%=      5-min Rain = 0
KAM1 181526Z 25023KT 11/M00 A2974 RMK A01 T01061003  RH  047%=      5-min Rain = 0
KAM1 181527Z 25019KT 11/M00 A2973 RMK A01 T01061003  RH  047%=      5-min Rain = 0
KAM1 181528Z 25019G26KT 11/M00 A2973 RMK A01 T01061003  RH  047%=      5-min Rain = 0
KAM1 181529Z 25022KT 11/M00 A2973 RMK A01 T01061003  RH  047%=      5-min Rain = 0
KAM1 181530Z 25019KT 11/M00 A2973 RMK A01 T01061002  RH  047%=      5-min Rain = 0
KAM1 181531Z 25021KT 11/M00 A2973 RMK A01 T01061002  RH  047%=      5-min Rain = 0
KAM1 181532Z 25020KT 11/M00 A2973 RMK A01 T01061002  RH  047%=      5-min Rain = 0
KAM1 181533Z 25022G27KT 11/M00 A2973 RMK A01 T01061002  RH  047%=      5-min Rain = 0
KAM1 181534Z 25021KT 11/M00 A2973 RMK A01 T01061001  RH  047%=      5-min Rain = 0
KAM1 181535Z 25021G26KT 11/00 A2973 RMK A01 T010700-0  RH  047%=      5-min Rain = 0
KAM1 181536Z 25022KT 11/00 A2973 RMK A01 T01070000  RH  047%=      5-min Rain = 0
KAM1 181537Z 24023G28KT 11/00 A2973 RMK A01 T01080001  RH  047%=      5-min Rain = 0
KAM1 181538Z 25023G29KT 11/00 A2973 RMK A01 T01090001  RH  047%=      5-min Rain = 0
KAM1 181539Z 25020KT 11/00 A2973 RMK A01 T01100002  RH  047%=      5-min Rain = 0
KAM1 181540Z 25019KT 11/00 A2973 RMK A01 T01100002  RH  047%=      5-min Rain = 0
KAM1 181541Z 25018KT 11/00 A2973 RMK A01 T01100002  RH  047%=      5-min Rain = 0
KAM1 181542Z 25021KT 11/00 A2973 RMK A01 T01100003  RH  047%=      5-min Rain = 0
KAM1 181543Z 24018KT 11/00 A2973 RMK A01 T01110003  RH  047%=      5-min Rain = 0
KAM1 181544Z 24019KT 11/00 A2973 RMK A01 T01110003  RH  047%=      5-min Rain = 0
KAM1 181545Z 25019KT 11/00 A2973 RMK A01 T01120003  RH  047%=      5-min Rain = 0
KAM1 181546Z 25020KT 11/00 A2973 RMK A01 T01120004  RH  047%=      5-min Rain = 0
KAM1 181547Z 25018KT 11/00 A2973 RMK A01 T01130004  RH  047%=      5-min Rain = 0
KAM1 181548Z 24016G21KT 11/01 A2973 RMK A01 T01130005  RH  047%=      5-min Rain = 0
KAM1 181549Z 24017KT 11/01 A2973 RMK A01 T01140006  RH  047%=      5-min Rain = 0
KAM1 181550Z 24018KT 12/01 A2973 RMK A01 T01150006  RH  047%=      5-min Rain = 0
KAM1 181551Z 25019G24KT 12/01 A2973 RMK A01 T01160006  RH  047%=      5-min Rain = 0
KAM1 181552Z 24020KT 12/01 A2972 RMK A01 T01170006  RH  047%=      5-min Rain = 0
KAM1 181553Z 24021G27KT 12/01 A2973 RMK A01 T01170006  RH  046%=      5-min Rain = 0
KAM1 181554Z 25021G26KT 12/01 A2973 RMK A01 T01180006  RH  046%=      5-min Rain = 0
KAM1 181555Z 25024G29KT 12/01 A2973 RMK A01 T01180006  RH  046%=      5-min Rain = 0
KAM1 181556Z 25022G27KT 12/01 A2973 RMK A01 T01190006  RH  046%=      5-min Rain = 0
KAM1 181557Z 25022KT 12/01 A2973 RMK A01 T01190006  RH  046%=      5-min Rain = 0
KAM1 181558Z 25018KT 12/01 A2973 RMK A01 T01190006  RH  046%=      5-min Rain = 0
KAM1 181559Z 25018G23KT 12/01 A2973 RMK A01 T01190007  RH  046%=      5-min Rain = 0
KAM1 181600Z 25020KT 12/01 A2973 RMK A01 T01190006  RH  046%=      5-min Rain = 0
KAM1 181601Z 25020G27KT 12/01 A2973 RMK A01 T01200006  RH  046%=      5-min Rain = 0
KAM1 181602Z 25019KT 12/01 A2973 RMK A01 T01190006  RH  046%=      5-min Rain = 0
KAM1 181603Z 25022KT 12/01 A2973 RMK A01 T01200006  RH  046%=      5-min Rain = 0
KAM1 181604Z 25019G24KT 12/01 A2973 RMK A01 T01190006  RH  046%=      5-min Rain = 0
KAM1 181605Z 25022KT 12/01 A2973 RMK A01 T01190005  RH  046%=      5-min Rain = 0
KAM1 181606Z 25018KT 12/01 A2973 RMK A01 T01190005  RH  046%=      5-min Rain = 0
KAM1 181607Z 25018G25KT 12/01 A2973 RMK A01 T01190006  RH  046%=      5-min Rain = 0
KAM1 181608Z 25021KT 12/01 A2973 RMK A01 T01180006  RH  046%=      5-min Rain = 0
KAM1 181609Z 25018KT 12/01 A2973 RMK A01 T01180006  RH  046%=      5-min Rain = 0
KAM1 181610Z 25018G23KT 12/01 A2973 RMK A01 T01180006  RH  046%=      5-min Rain = 0
KAM1 181611Z 25018KT 12/01 A2973 RMK A01 T01180006  RH  046%=      5-min Rain = 0
KAM1 181612Z 25019KT 12/01 A2973 RMK A01 T01180006  RH  046%=      5-min Rain = 0
KAM1 181613Z 25018G23KT 12/01 A2973 RMK A01 T01180007  RH  046%=      5-min Rain = 0
KAM1 181614Z 25019KT 12/01 A2973 RMK A01 T01180007  RH  047%=      5-min Rain = 0
KAM1 181615Z 25018G23KT 12/01 A2973 RMK A01 T01180007  RH  047%=      5-min Rain = 0
KAM1 181616Z 25018G24KT 12/01 A2973 RMK A01 T01180007  RH  047%=      5-min Rain = 0
KAM1 181617Z 25024KT 12/01 A2972 RMK A01 T01180008  RH  047%=      5-min Rain = 0
KAM1 181618Z 25021KT 12/01 A2972 RMK A01 T01190008  RH  046%=      5-min Rain = 0
KAM1 181619Z 25021KT 12/01 A2972 RMK A01 T01190008  RH  046%=      5-min Rain = 0
KAM1 181620Z 25023KT 12/01 A2972 RMK A01 T01200008  RH  046%=      5-min Rain = 0
KAM1 181621Z 25020G26KT 12/01 A2972 RMK A01 T01210009  RH  046%=      5-min Rain = 0
KAM1 181622Z 25023KT 12/01 A2972 RMK A01 T01220010  RH  046%=      5-min Rain = 0
KAM1 181623Z 25020KT 12/01 A2972 RMK A01 T01220010  RH  046%=      5-min Rain = 0
KAM1 181624Z 25023KT 12/01 A2972 RMK A01 T01230011  RH  046%=      5-min Rain = 0
KAM1 181625Z 25020G26KT 12/01 A2972 RMK A01 T01240011  RH  046%=      5-min Rain = 0
KAM1 181626Z 25018KT 13/01 A2972 RMK A01 T01250012  RH  046%=      5-min Rain = 0
KAM1 181627Z 25023G28KT 13/01 A2972 RMK A01 T01260012  RH  046%=      5-min Rain = 0
KAM1 181628Z 25023G30KT 13/01 A2972 RMK A01 T01260012  RH  046%=      5-min Rain = 0
KAM1 181629Z 26022KT 13/01 A2972 RMK A01 T01260012  RH  046%=      5-min Rain = 0
KAM1 181630Z 25023KT 13/01 A2972 RMK A01 T01270012  RH  046%=      5-min Rain = 0
KAM1 181631Z 26023KT 13/01 A2972 RMK A01 T01270013  RH  046%=      5-min Rain = 0
KAM1 181632Z 26024G29KT 13/01 A2972 RMK A01 T01270013  RH  046%=      5-min Rain = 0
KAM1 181633Z 25023KT 13/01 A2971 RMK A01 T01280013  RH  045%=      5-min Rain = 0
KAM1 181634Z 26021KT 13/01 A2972 RMK A01 T01290014  RH  045%=      5-min Rain = 0
KAM1 181635Z 25018KT 13/02 A2972 RMK A01 T01300015  RH  045%=      5-min Rain = 0
KAM1 181636Z 25023KT 13/02 A2972 RMK A01 T01320016  RH  045%=      5-min Rain = 0
KAM1 181637Z 26019G24KT 13/01 A2972 RMK A01 T01320014  RH  045%=      5-min Rain = 0
KAM1 181638Z 25021KT 13/02 A2972 RMK A01 T01320015  RH  045%=      5-min Rain = 0
KAM1 181639Z 26021KT 13/02 A2972 RMK A01 T01310015  RH  045%=      5-min Rain = 0
KAM1 181640Z 26023KT 13/01 A2971 RMK A01 T01300014  RH  045%=      5-min Rain = 0
KAM1 181641Z 26019G24KT 13/02 A2971 RMK A01 T01300015  RH  045%=      5-min Rain = 0
KAM1 181642Z 26018KT 13/02 A2971 RMK A01 T01300015  RH  046%=      5-min Rain = 0
KAM1 181643Z 26017G22KT 13/02 A2971 RMK A01 T01290015  RH  046%=      5-min Rain = 0
KAM1 181644Z 26019KT 13/02 A2971 RMK A01 T01300016  RH  046%=      5-min Rain = 0
KAM1 181645Z 27020KT 13/02 A2971 RMK A01 T01290015  RH  046%=      5-min Rain = 0
KAM1 181646Z 26018KT 13/02 A2971 RMK A01 T01290015  RH  046%=      5-min Rain = 0
KAM1 181647Z 26017KT 13/02 A2971 RMK A01 T01290015  RH  046%=      5-min Rain = 0
KAM1 181648Z 25015KT 13/02 A2971 RMK A01 T01280015  RH  046%=      5-min Rain = 0
KAM1 181649Z 25020G26KT 13/02 A2971 RMK A01 T01280016  RH  046%=      5-min Rain = 0
KAM1 181650Z 25016KT 13/02 A2971 RMK A01 T01280016  RH  046%=      5-min Rain = 0
KAM1 181651Z 25019KT 13/02 A2971 RMK A01 T01280016  RH  047%=      5-min Rain = 0
KAM1 181652Z 25016G22KT 13/02 A2971 RMK A01 T01270016  RH  047%=      5-min Rain = 0
KAM1 181653Z 25020KT 13/02 A2971 RMK A01 T01280017  RH  047%=      5-min Rain = 0
KAM1 181654Z 26019KT 13/02 A2971 RMK A01 T01280017  RH  047%=      5-min Rain = 0
KAM1 181655Z 25017KT 13/02 A2971 RMK A01 T01280017  RH  047%=      5-min Rain = 0
KAM1 181656Z 26019G24KT 13/02 A2971 RMK A01 T01280018  RH  047%=      5-min Rain = 0
KAM1 181657Z 26019KT 13/02 A2971 RMK A01 T01280018  RH  047%=      5-min Rain = 0
KAM1 181658Z 26017KT 13/02 A2971 RMK A01 T01290019  RH  047%=      5-min Rain = 0
KAM1 181659Z 26016KT 13/02 A2971 RMK A01 T01300020  RH  047%=      5-min Rain = 0
KAM1 181700Z 26016G21KT 13/02 A2971 RMK A01 T01310021  RH  047%=      5-min Rain = 0
KAM1 181701Z 26017G22KT 13/02 A2971 RMK A01 T01320021  RH  047%=      5-min Rain = 0
KAM1 181702Z 26020G25KT 13/02 A2971 RMK A01 T01330022  RH  047%=      5-min Rain = 0
KAM1 181703Z 26022G30KT 14/02 A2971 RMK A01 T01360023  RH  047%=      5-min Rain = 0
KAM1 181704Z 26024KT 14/02 A2971 RMK A01 T01390024  RH  046%=      5-min Rain = 0
KAM1 181705Z 26025G30KT 14/03 A297 RMK A01 T01430025  RH  045%=      5-min Rain = 0
KAM1 181706Z 26022KT 14/02 A297 RMK A01 T01440024  RH  044%=      5-min Rain = 0
KAM1 181707Z 26023KT 14/02 A297 RMK A01 T01440024  RH  044%=      5-min Rain = 0
KAM1 181708Z 25020G29KT 15/03 A297 RMK A01 T01460026  RH  044%=      5-min Rain = 0
KAM1 181709Z 25024KT 15/03 A297 RMK A01 T01490026  RH  043%=      5-min Rain = 0
KAM1 181710Z 25025G31KT 15/03 A297 RMK A01 T01490025  RH  043%=      5-min Rain = 0
KAM1 181711Z 25024KT 15/02 A297 RMK A01 T01480024  RH  043%=      5-min Rain = 0
KAM1 181712Z 26024G29KT 15/02 A297 RMK A01 T01460023  RH  043%=      5-min Rain = 0
KAM1 181713Z 26026G31KT 14/02 A2969 RMK A01 T01440022  RH  044%=      5-min Rain = 0
KAM1 181714Z 25027KT 14/02 A2969 RMK A01 T01420021  RH  044%=      5-min Rain = 0
KAM1 181715Z 25025G30KT 14/02 A2969 RMK A01 T01400021  RH  044%=      5-min Rain = 0
KAM1 181716Z 25023G28KT 14/02 A2969 RMK A01 T01400022  RH  045%=      5-min Rain = 0
KAM1 181717Z 25025G33KT 14/02 A2969 RMK A01 T01400023  RH  045%=      5-min Rain = 0
KAM1 181718Z 26026G34KT 14/02 A2969 RMK A01 T01400022  RH  045%=      5-min Rain = 0
KAM1 181719Z 25024G30KT 14/02 A2969 RMK A01 T01420024  RH  045%=      5-min Rain = 0
KAM1 181720Z 25023KT 15/03 A2969 RMK A01 T01470027  RH  044%=      5-min Rain = 0
KAM1 181721Z 25027G32KT 15/03 A2968 RMK A01 T01510027  RH  043%=      5-min Rain = 0
KAM1 181722Z 25023G28KT 15/03 A2969 RMK A01 T01520027  RH  043%=      5-min Rain = 0
KAM1 181723Z 25027G33KT 16/03 A2968 RMK A01 T01550028  RH  042%=      5-min Rain = 0
KAM1 181724Z 25021G27KT 16/03 A2968 RMK A01 T01560028  RH  042%=      5-min Rain = 0
KAM1 181725Z 25028G34KT 16/03 A2968 RMK A01 T01590028  RH  041%=      5-min Rain = 0
KAM1 181726Z 25026G31KT 16/03 A2968 RMK A01 T01560025  RH  041%=      5-min Rain = 0
KAM1 181727Z 25023G28KT 16/03 A2968 RMK A01 T01560026  RH  042%=      5-min Rain = 0
KAM1 181728Z 25028KT 16/03 A2968 RMK A01 T01570026  RH  041%=      5-min Rain = 0
KAM1 181729Z 25027G32KT 16/03 A2968 RMK A01 T01570025  RH  041%=      5-min Rain = 0
KAM1 181730Z 25026KT 16/03 A2968 RMK A01 T01570026  RH  041%=      5-min Rain = 0
KAM1 181731Z 25027G34KT 16/03 A2968 RMK A01 T01580026  RH  041%=      5-min Rain = 0
KAM1 181732Z 25026KT 16/03 A2968 RMK A01 T01590026  RH  041%=      5-min Rain = 0
KAM1 181733Z 25025G32KT 16/03 A2968 RMK A01 T01610027  RH  040%=      5-min Rain = 0
KAM1 181734Z 25026G31KT 16/03 A2968 RMK A01 T01620026  RH  040%=      5-min Rain = 0
KAM1 181735Z 25027G32KT 16/03 A2968 RMK A01 T01620025  RH  040%=      5-min Rain = 0
KAM1 181736Z 25026G31KT 16/03 A2968 RMK A01 T01610025  RH  040%=      5-min Rain = 0
KAM1 181737Z 26023G28KT 16/03 A2968 RMK A01 T01620025  RH  040%=      5-min Rain = 0
KAM1 181738Z 26023G30KT 16/03 A2968 RMK A01 T01640028  RH  040%=      5-min Rain = 0
KAM1 181739Z 25029G35KT 17/03 A2968 RMK A01 T01660026  RH  039%=      5-min Rain = 0
KAM1 181740Z 25028KT 16/02 A2968 RMK A01 T01640023  RH  039%=      5-min Rain = 0
KAM1 181741Z 25025G31KT 16/02 A2968 RMK A01 T01640023  RH  039%=      5-min Rain = 0
KAM1 181742Z 26022KT 17/03 A2968 RMK A01 T01650025  RH  039%=      5-min Rain = 0
KAM1 181743Z 25022G27KT 17/03 A2968 RMK A01 T01670027  RH  039%=      5-min Rain = 0
KAM1 181744Z 25026KT 17/03 A2967 RMK A01 T01690026  RH  038%=      5-min Rain = 0
KAM1 181745Z 26021G27KT 17/03 A2968 RMK A01 T01690025  RH  038%=      5-min Rain = 0
KAM1 181746Z 26023G31KT 17/03 A2968 RMK A01 T01700026  RH  038%=      5-min Rain = 0
KAM1 181747Z 26023G29KT 17/03 A2968 RMK A01 T01710025  RH  038%=      5-min Rain = 0
KAM1 181748Z 26024KT 17/02 A2968 RMK A01 T01710024  RH  037%=      5-min Rain = 0
KAM1 181749Z 25027KT 17/02 A2968 RMK A01 T01720024  RH  037%=      5-min Rain = 0
KAM1 181750Z 25026G31KT 17/02 A2968 RMK A01 T01710021  RH  037%=      5-min Rain = 0
KAM1 181751Z 26028G33KT 17/02 A2967 RMK A01 T01720022  RH  037%=      5-min Rain = 0
KAM1 181752Z 25023G31KT 17/02 A2967 RMK A01 T01720021  RH  036%=      5-min Rain = 0
KAM1 181753Z 26025G31KT 17/02 A2967 RMK A01 T01720022  RH  036%=      5-min Rain = 0
KAM1 181754Z 26021G26KT 17/02 A2968 RMK A01 T01730022  RH  036%=      5-min Rain = 0
KAM1 181755Z 26024G31KT 17/02 A2967 RMK A01 T01740021  RH  036%=      5-min Rain = 0
KAM1 181756Z 26023G29KT 17/02 A2967 RMK A01 T01730020  RH  036%=      5-min Rain = 0
KAM1 181757Z 26028G33KT 17/02 A2967 RMK A01 T01720018  RH  035%=      5-min Rain = 0
KAM1 181758Z 26025G33KT 17/01 A2967 RMK A01 T01690014  RH  035%=      5-min Rain = 0
KAM1 181759Z 27027G34KT 17/01 A2967 RMK A01 T01680014  RH  035%=      5-min Rain = 0
KAM1 181800Z 26027KT 17/01 A2967 RMK A01 T01670011  RH  035%=      5-min Rain = 0
KAM1 181801Z 26027G32KT 17/01 A2967 RMK A01 T01660012  RH  035%=      5-min Rain = 0
KAM1 181802Z 26026KT 17/01 A2967 RMK A01 T01680011  RH  035%=      5-min Rain = 0
KAM1 181803Z 26024G30KT 17/01 A2966 RMK A01 T01690012  RH  035%=      5-min Rain = 0
KAM1 181804Z 26023G28KT 17/01 A2966 RMK A01 T01700013  RH  035%=      5-min Rain = 0
KAM1 181805Z 26021G27KT 17/01 A2966 RMK A01 T01710013  RH  034%=      5-min Rain = 0
KAM1 181806Z 26023G29KT 17/01 A2966 RMK A01 T01710013  RH  035%=      5-min Rain = 0
KAM1 181807Z 26023G31KT 17/01 A2966 RMK A01 T01700012  RH  034%=      5-min Rain = 0
KAM1 181808Z 26029G35KT 17/01 A2966 RMK A01 T01690011  RH  034%=      5-min Rain = 0
KAM1 181809Z 26027KT 17/01 A2966 RMK A01 T01670009  RH  034%=      5-min Rain = 0
KAM1 181810Z 27021G29KT 17/01 A2966 RMK A01 T01660008  RH  034%=      5-min Rain = 0
KAM1 181811Z 26022KT 17/01 A2966 RMK A01 T01670009  RH  034%=      5-min Rain = 0
KAM1 181812Z 27027G32KT 17/01 A2965 RMK A01 T01680010  RH  034%=      5-min Rain = 0
KAM1 181813Z 26022G27KT 17/01 A2966 RMK A01 T01670008  RH  034%=      5-min Rain = 0
KAM1 181814Z 26021G26KT 17/01 A2966 RMK A01 T01650010  RH  035%=      5-min Rain = 0
KAM1 181815Z 26020G26KT 17/01 A2966 RMK A01 T01650010  RH  035%=      5-min Rain = 0
KAM1 181816Z 27021G30KT 16/01 A2966 RMK A01 T01640010  RH  035%=      5-min Rain = 0
KAM1 181817Z 26028G34KT 17/01 A2965 RMK A01 T01680011  RH  035%=      5-min Rain = 0
KAM1 181818Z 26029G36KT 17/01 A2965 RMK A01 T01730010  RH  033%=      5-min Rain = 0
KAM1 181819Z 26027G32KT 18/01 A2965 RMK A01 T01750009  RH  033%=      5-min Rain = 0
KAM1 181820Z 27028KT 17/01 A2965 RMK A01 T01740009  RH  033%=      5-min Rain = 0
KAM1 181821Z 26030G38KT 18/01 A2965 RMK A01 T01750007  RH  032%=      5-min Rain = 0
KAM1 181822Z 26029KT 18/01 A2965 RMK A01 T01750006  RH  032%=      5-min Rain = 0
KAM1 181823Z 26027KT 18/01 A2965 RMK A01 T01760007  RH  032%=      5-min Rain = 0
KAM1 181824Z 26021G29KT 18/01 A2965 RMK A01 T01790007  RH  031%=      5-min Rain = 0
KAM1 181825Z 27019KT 18/01 A2965 RMK A01 T01830010  RH  031%=      5-min Rain = 0
KAM1 181826Z 27024G29KT 19/01 A2965 RMK A01 T01860009  RH  030%=      5-min Rain = 0
KAM1 181827Z 27024KT 19/00 A2965 RMK A01 T01860001  RH  029%=      5-min Rain = 0
KAM1 181828Z 27022KT 19/00 A2965 RMK A01 T01850003  RH  029%=      5-min Rain = 0
KAM1 181829Z 27022KT 19/00 A2964 RMK A01 T01860002  RH  029%=      5-min Rain = 0
KAM1 181830Z 27024G30KT 19/M00 A2964 RMK A01 T01861001  RH  028%=      5-min Rain = 0
KAM1 181831Z 27026G31KT 19/M01 A2964 RMK A01 T01861005  RH  027%=      5-min Rain = 0
KAM1 181832Z 27026KT 19/M01 A2964 RMK A01 T01851007  RH  027%=      5-min Rain = 0
KAM1 181833Z 27023G29KT 18/M01 A2964 RMK A01 T01841007  RH  027%=      5-min Rain = 0
KAM1 181834Z 27019KT 19/M01 A2964 RMK A01 T01861005  RH  028%=      5-min Rain = 0
KAM1 181835Z 27021G26KT 19/M00 A2964 RMK A01 T01891001  RH  028%=      5-min Rain = 0
KAM1 181836Z 26026G33KT 19/M00 A2963 RMK A01 T01901003  RH  027%=      5-min Rain = 0
KAM1 181837Z 27024G30KT 19/M00 A2964 RMK A01 T01881004  RH  027%=      5-min Rain = 0
KAM1 181838Z 27026G31KT 19/M01 A2963 RMK A01 T01881010  RH  026%=      5-min Rain = 0
KAM1 181839Z 28028G33KT 19/M01 A2963 RMK A01 T01861014  RH  026%=      5-min Rain = 0
KAM1 181840Z 26025G31KT 18/M01 A2964 RMK A01 T01841010  RH  027%=      5-min Rain = 0
KAM1 181841Z 26024G30KT 19/M01 A2963 RMK A01 T01851009  RH  027%=      5-min Rain = 0
KAM1 181842Z 26030G36KT 19/M01 A2963 RMK A01 T01851011  RH  026%=      5-min Rain = 0
KAM1 181843Z 27028KT 18/M01 A2963 RMK A01 T01841012  RH  026%=      5-min Rain = 0
KAM1 181844Z 27030KT 18/M01 A2963 RMK A01 T01831013  RH  026%=      5-min Rain = 0
KAM1 181845Z 27028G36KT 18/M01 A2963 RMK A01 T01821012  RH  027%=      5-min Rain = 0
KAM1 181846Z 27026G33KT 18/M01 A2963 RMK A01 T01831011  RH  027%=      5-min Rain = 0
KAM1 181847Z 27026G32KT 18/M01 A2963 RMK A01 T01841012  RH  026%=      5-min Rain = 0
KAM1 181848Z 27020G27KT 19/M01 A2963 RMK A01 T01851011  RH  026%=      5-min Rain = 0
KAM1 181849Z 28023G31KT 19/M01 A2963 RMK A01 T01901012  RH  026%=      5-min Rain = 0
KAM1 181850Z 27028G35KT 19/M02 A2963 RMK A01 T01911017  RH  025%=      5-min Rain = 0
KAM1 181851Z 28030G38KT 19/M02 A2962 RMK A01 T01881020  RH  024%=      5-min Rain = 0
KAM1 181852Z 28030G36KT 19/M02 A2962 RMK A01 T01861024  RH  024%=      5-min Rain = 0
KAM1 181853Z 28026G33KT 18/M03 A2963 RMK A01 T01831027  RH  024%=      5-min Rain = 0
KAM1 181854Z 28021G30KT 18/M03 A2963 RMK A01 T01801027  RH  024%=      5-min Rain = 0
KAM1 181855Z 27022KT 18/M03 A2963 RMK A01 T01781027  RH  025%=      5-min Rain = 0
KAM1 181856Z 27021KT 18/M03 A2963 RMK A01 T01751025  RH  026%=      5-min Rain = 0
KAM1 181857Z 27028KT 17/M02 A2962 RMK A01 T01731021  RH  027%=      5-min Rain = 0
KAM1 181858Z 27023KT 17/M02 A2962 RMK A01 T01711019  RH  027%=      5-min Rain = 0
KAM1 181859Z 27026G33KT 17/M02 A2962 RMK A01 T01711018  RH  028%=      5-min Rain = 0
KAM1 181900Z 26025G32KT 17/M02 A2962 RMK A01 T01701018  RH  028%=      5-min Rain = 0
KAM1 181901Z 26029KT 17/M02 A2962 RMK A01 T01691019  RH  028%=      5-min Rain = 0
KAM1 181902Z 27029KT 17/M02 A2962 RMK A01 T01681020  RH  028%=      5-min Rain = 0
KAM1 181903Z 27025G31KT 17/M02 A2962 RMK A01 T01681020  RH  028%=      5-min Rain = 0
KAM1 181904Z 27023KT 17/M02 A2962 RMK A01 T01681020  RH  028%=      5-min Rain = 0
KAM1 181905Z 27022G27KT 17/M02 A2962 RMK A01 T01701020  RH  027%=      5-min Rain = 0
KAM1 181906Z 27023KT 17/M02 A2962 RMK A01 T01721021  RH  027%=      5-min Rain = 0
KAM1 181907Z 26022KT 17/M02 A2962 RMK A01 T01731022  RH  026%=      5-min Rain = 0
KAM1 181908Z 26024G29KT 17/M02 A2962 RMK A01 T01741022  RH  026%=      5-min Rain = 0
KAM1 181909Z 26022KT 18/M02 A2962 RMK A01 T01751023  RH  026%=      5-min Rain = 0
KAM1 181910Z 26023G28KT 18/M02 A2962 RMK A01 T01761024  RH  026%=      5-min Rain = 0
KAM1 181911Z 26021G26KT 18/M02 A2961 RMK A01 T01781022  RH  026%=      5-min Rain = 0
KAM1 181912Z 27017G25KT 18/M02 A2962 RMK A01 T01801020  RH  026%=      5-min Rain = 0
KAM1 181913Z 28022G27KT 18/M02 A2961 RMK A01 T01841020  RH  025%=      5-min Rain = 0
KAM1 181914Z 27020G25KT 18/M03 A2961 RMK A01 T01831025  RH  024%=      5-min Rain = 0
KAM1 181915Z 27016KT 18/M03 A2961 RMK A01 T01821025  RH  024%=      5-min Rain = 0
KAM1 181916Z 28020G25KT 18/M03 A2961 RMK A01 T01821027  RH  024%=      5-min Rain = 0
KAM1 181917Z 28021KT 18/M03 A2961 RMK A01 T01811029  RH  024%=      5-min Rain = 0
KAM1 181918Z 27025KT 18/M03 A2961 RMK A01 T01801027  RH  024%=      5-min Rain = 0
KAM1 181919Z 26027G34KT 18/M03 A2961 RMK A01 T01771026  RH  025%=      5-min Rain = 0
KAM1 181920Z 27026KT 18/M03 A2961 RMK A01 T01751026  RH  025%=      5-min Rain = 0
KAM1 181921Z 27028KT 18/M03 A2961 RMK A01 T01751027  RH  025%=      5-min Rain = 0
KAM1 181922Z 27023G28KT 18/M03 A2961 RMK A01 T01761027  RH  025%=      5-min Rain = 0
KAM1 181923Z 26019G24KT 18/M03 A2961 RMK A01 T01801025  RH  025%=      5-min Rain = 0
KAM1 181924Z 27023G28KT 19/M02 A2961 RMK A01 T01851023  RH  024%=      5-min Rain = 0
KAM1 181925Z 27023G29KT 19/M03 A2961 RMK A01 T01871027  RH  023%=      5-min Rain = 0
KAM1 181926Z 28025G30KT 19/M03 A2961 RMK A01 T01861029  RH  023%=      5-min Rain = 0
KAM1 181927Z 28023G28KT 18/M03 A2961 RMK A01 T01811033  RH  023%=      5-min Rain = 0
KAM1 181928Z 27024KT 18/M03 A2961 RMK A01 T01781033  RH  023%=      5-min Rain = 0
KAM1 181929Z 28024KT 18/M04 A2961 RMK A01 T01761035  RH  024%=      5-min Rain = 0
KAM1 181930Z 27022G28KT 17/M04 A2961 RMK A01 T01731037  RH  023%=      5-min Rain = 0
KAM1 181931Z 27021G26KT 17/M04 A2961 RMK A01 T01721037  RH  024%=      5-min Rain = 0
KAM1 181932Z 27021KT 17/M04 A2961 RMK A01 T01721037  RH  024%=      5-min Rain = 0
KAM1 181933Z 27022KT 17/M04 A2961 RMK A01 T01721036  RH  024%=      5-min Rain = 0
KAM1 181934Z 27023KT 17/M04 A2961 RMK A01 T01711035  RH  024%=      5-min Rain = 0
KAM1 181935Z 26023G29KT 17/M04 A2961 RMK A01 T01701035  RH  024%=      5-min Rain = 0
KAM1 181936Z 26024G29KT 17/M04 A2961 RMK A01 T01691036  RH  024%=      5-min Rain = 0
KAM1 181937Z 26024G31KT 17/M04 A2961 RMK A01 T01691035  RH  024%=      5-min Rain = 0
KAM1 181938Z 27022G31KT 17/M04 A2961 RMK A01 T01681035  RH  025%=      5-min Rain = 0
KAM1 181939Z 27026KT 17/M04 A2961 RMK A01 T01681035  RH  025%=      5-min Rain = 0
KAM1 181940Z 27024G29KT 17/M04 A2961 RMK A01 T01681035  RH  025%=      5-min Rain = 0
KAM1 181941Z 27022G27KT 17/M04 A2961 RMK A01 T01681036  RH  024%=      5-min Rain = 0
KAM1 181942Z 27020G25KT 17/M04 A2961 RMK A01 T01681036  RH  024%=      5-min Rain = 0
KAM1 181943Z 27021KT 17/M04 A2961 RMK A01 T01681036  RH  024%=      5-min Rain = 0
KAM1 181944Z 27019KT 17/M04 A2961 RMK A01 T01681037  RH  024%=      5-min Rain = 0
KAM1 181945Z 27017G23KT 17/M04 A2961 RMK A01 T01701035  RH  024%=      5-min Rain = 0
KAM1 181946Z 27026KT 17/M03 A296 RMK A01 T01721034  RH  024%=      5-min Rain = 0
KAM1 181947Z 27023G30KT 17/M04 A2961 RMK A01 T01721035  RH  024%=      5-min Rain = 0
KAM1 181948Z 28026KT 17/M04 A296 RMK A01 T01721035  RH  024%=      5-min Rain = 0
KAM1 181949Z 27021G27KT 17/M04 A296 RMK A01 T01711037  RH  024%=      5-min Rain = 0
KAM1 181950Z 27020G25KT 17/M04 A296 RMK A01 T01701036  RH  024%=      5-min Rain = 0
KAM1 181951Z 26022KT 17/M04 A296 RMK A01 T01701036  RH  024%=      5-min Rain = 0
KAM1 181952Z 27020G27KT 17/M04 A296 RMK A01 T01691036  RH  024%=      5-min Rain = 0
KAM1 181953Z 28023KT 17/M04 A296 RMK A01 T01691035  RH  025%=      5-min Rain = 0
KAM1 181954Z 27022KT 17/M03 A296 RMK A01 T01701034  RH  025%=      5-min Rain = 0
KAM1 181955Z 27016G21KT 17/M03 A296 RMK A01 T01741030  RH  025%=      5-min Rain = 0
KAM1 181956Z 26022G28KT 18/M03 A296 RMK A01 T01811025  RH  025%=      5-min Rain = 0
KAM1 181957Z 27025KT 19/M03 A296 RMK A01 T01851026  RH  024%=      5-min Rain = 0
KAM1 181958Z 27026G31KT 19/M03 A296 RMK A01 T01851028  RH  023%=      5-min Rain = 0
KAM1 181959Z 27026G31KT 18/M03 A296 RMK A01 T01841027  RH  024%=      5-min Rain = 0
KAM1 182000Z 28025KT 18/M03 A296 RMK A01 T01841028  RH  024%=      5-min Rain = 0
KAM1 182001Z 28022G29KT 18/M03 A296 RMK A01 T01841029  RH  023%=      5-min Rain = 0
KAM1 182002Z 27024G30KT 18/M03 A296 RMK A01 T01831029  RH  023%=      5-min Rain = 0
KAM1 182003Z 27023KT 19/M03 A296 RMK A01 T01851029  RH  023%=      5-min Rain = 0
KAM1 182004Z 27023KT 19/M03 A296 RMK A01 T01861033  RH  022%=      5-min Rain = 0
KAM1 182005Z 28020G25KT 18/M03 A296 RMK A01 T01841033  RH  023%=      5-min Rain = 0
KAM1 182006Z 26023G30KT 18/M03 A296 RMK A01 T01841030  RH  023%=      5-min Rain = 0
KAM1 182007Z 26021G26KT 19/M03 A296 RMK A01 T01861029  RH  023%=      5-min Rain = 0
KAM1 182008Z 26023G29KT 19/M03 A296 RMK A01 T01871028  RH  023%=      5-min Rain = 0
KAM1 182009Z 26022KT 19/M03 A296 RMK A01 T01871031  RH  023%=      5-min Rain = 0
KAM1 182010Z 27020G26KT 19/M03 A296 RMK A01 T01861030  RH  023%=      5-min Rain = 0
KAM1 182011Z 28021G28KT 19/M03 A296 RMK A01 T01861030  RH  023%=      5-min Rain = 0
KAM1 182012Z 28023G28KT 19/M03 A296 RMK A01 T01871031  RH  023%=      5-min Rain = 0
KAM1 182013Z 27021KT 19/M03 A296 RMK A01 T01851034  RH  022%=      5-min Rain = 0
KAM1 182014Z 27022G27KT 19/M04 A296 RMK A01 T01851035  RH  022%=      5-min Rain = 0
KAM1 182015Z 27018G24KT 18/M04 A296 RMK A01 T01841036  RH  022%=      5-min Rain = 0
KAM1 182016Z 28023G29KT 19/M03 A296 RMK A01 T01861033  RH  022%=      5-min Rain = 0
KAM1 182017Z 27022G28KT 19/M04 A296 RMK A01 T01871036  RH  022%=      5-min Rain = 0
KAM1 182018Z 28023G30KT 18/M04 A296 RMK A01 T01821041  RH  022%=      5-min Rain = 0
KAM1 182019Z 27022KT 18/M04 A296 RMK A01 T01771041  RH  022%=      5-min Rain = 0
KAM1 182020Z 27021G28KT 18/M04 A296 RMK A01 T01751041  RH  023%=      5-min Rain = 0
KAM1 182021Z 28026G31KT 17/M04 A296 RMK A01 T01741040  RH  023%=      5-min Rain = 0
KAM1 182022Z 27023G29KT 17/M04 A296 RMK A01 T01741042  RH  023%=      5-min Rain = 0
KAM1 182023Z 27025KT 18/M04 A296 RMK A01 T01751041  RH  023%=      5-min Rain = 0
KAM1 182024Z 26023G29KT 18/M04 A296 RMK A01 T01771039  RH  023%=      5-min Rain = 0
KAM1 182025Z 27022G27KT 18/M04 A296 RMK A01 T01801037  RH  022%=      5-min Rain = 0
KAM1 182026Z 27020KT 18/M04 A296 RMK A01 T01821037  RH  022%=      5-min Rain = 0
KAM1 182027Z 28021KT 18/M04 A296 RMK A01 T01821040  RH  022%=      5-min Rain = 0
KAM1 182028Z 26022KT 18/M04 A296 RMK A01 T01791042  RH  022%=      5-min Rain = 0
KAM1 182029Z 27023G29KT 18/M04 A296 RMK A01 T01781041  RH  022%=      5-min Rain = 0
KAM1 182030Z 28024G29KT 18/M04 A296 RMK A01 T01781043  RH  022%=      5-min Rain = 0
KAM1 182031Z 27022G28KT 18/M04 A296 RMK A01 T01771044  RH  022%=      5-min Rain = 0
KAM1 182032Z 27025KT 18/M05 A296 RMK A01 T01761045  RH  022%=      5-min Rain = 0
KAM1 182033Z 28024G29KT 18/M05 A296 RMK A01 T01751047  RH  021%=      5-min Rain = 0
KAM1 182034Z 28022KT 17/M05 A296 RMK A01 T01741049  RH  021%=      5-min Rain = 0
KAM1 182035Z 27019KT 17/M05 A296 RMK A01 T01731048  RH  022%=      5-min Rain = 0
KAM1 182036Z 28021G26KT 17/M05 A296 RMK A01 T01731046  RH  022%=      5-min Rain = 0
KAM1 182037Z 26024KT 17/M04 A296 RMK A01 T01741044  RH  022%=      5-min Rain = 0
KAM1 182038Z 26021KT 17/M04 A296 RMK A01 T01731042  RH  023%=      5-min Rain = 0
KAM1 182039Z 27024G30KT 17/M04 A2959 RMK A01 T01721042  RH  023%=      5-min Rain = 0
KAM1 182040Z 27019KT 17/M05 A2959 RMK A01 T01721045  RH  022%=      5-min Rain = 0
KAM1 182041Z 27017G22KT 17/M05 A2959 RMK A01 T01721046  RH  022%=      5-min Rain = 0
KAM1 182042Z 27021G26KT 17/M04 A2959 RMK A01 T01721044  RH  022%=      5-min Rain = 0
KAM1 182043Z 27018KT 17/M05 A2959 RMK A01 T01721045  RH  022%=      5-min Rain = 0
KAM1 182044Z 27019KT 17/M05 A2959 RMK A01 T01721045  RH  022%=      5-min Rain = 0
KAM1 182045Z 26019G24KT 17/M04 A2959 RMK A01 T01711043  RH  023%=      5-min Rain = 0
KAM1 182046Z 26020KT 17/M04 A2959 RMK A01 T01711041  RH  023%=      5-min Rain = 0
KAM1 182047Z 26018KT 17/M04 A2959 RMK A01 T01701041  RH  023%=      5-min Rain = 0
KAM1 182048Z 26018G24KT 17/M04 A2959 RMK A01 T01701040  RH  023%=      5-min Rain = 0
KAM1 182049Z 26018KT 17/M04 A2959 RMK A01 T01691041  RH  023%=      5-min Rain = 0
KAM1 182050Z 26018KT 17/M04 A2959 RMK A01 T01691041  RH  023%=      5-min Rain = 0
KAM1 182051Z 26015KT 17/M04 A2959 RMK A01 T01691040  RH  024%=      5-min Rain = 0
KAM1 182052Z 26018G24KT 17/M04 A2959 RMK A01 T01701039  RH  024%=      5-min Rain = 0
KAM1 182053Z 26020KT 17/M04 A2959 RMK A01 T01711041  RH  023%=      5-min Rain = 0
KAM1 182054Z 26017KT 17/M04 A2959 RMK A01 T01701041  RH  023%=      5-min Rain = 0
KAM1 182055Z 27015KT 17/M04 A2959 RMK A01 T01701040  RH  024%=      5-min Rain = 0
KAM1 182056Z 27017G22KT 17/M04 A2959 RMK A01 T01711039  RH  024%=      5-min Rain = 0
KAM1 182057Z 26016G21KT 17/M04 A2959 RMK A01 T01701040  RH  024%=      5-min Rain = 0
KAM1 182058Z 26020KT 17/M04 A2959 RMK A01 T01711040  RH  023%=      5-min Rain = 0
KAM1 182059Z 26021KT 17/M04 A2958 RMK A01 T01701042  RH  023%=      5-min Rain = 0
KAM1 182100Z 26019KT 17/M04 A2959 RMK A01 T01691044  RH  023%=      5-min Rain = 0
KAM1 182101Z 27016KT 17/M04 A2959 RMK A01 T01691044  RH  023%=      5-min Rain = 0
KAM1 182102Z 26016KT 17/M04 A2959 RMK A01 T01691043  RH  023%=      5-min Rain = 0
KAM1 182103Z 26019G24KT 17/M04 A2958 RMK A01 T01691043  RH  023%=      5-min Rain = 0
KAM1 182104Z 27019KT 17/M04 A2958 RMK A01 T01691044  RH  023%=      5-min Rain = 0
KAM1 182105Z 27020KT 17/M05 A2958 RMK A01 T01691047  RH  022%=      5-min Rain = 0
KAM1 182106Z 27018KT 17/M05 A2958 RMK A01 T01691047  RH  022%=      5-min Rain = 0
KAM1 182107Z 27020KT 17/M05 A2958 RMK A01 T01691046  RH  023%=      5-min Rain = 0
KAM1 182108Z 27019G24KT 17/M05 A2959 RMK A01 T01701046  RH  022%=      5-min Rain = 0
KAM1 182109Z 27019KT 17/M05 A2959 RMK A01 T01711046  RH  022%=      5-min Rain = 0
KAM1 182110Z 27016KT 17/M05 A2959 RMK A01 T01711046  RH  022%=      5-min Rain = 0
KAM1 182111Z 26016G21KT 17/M05 A2959 RMK A01 T01711045  RH  022%=      5-min Rain = 0
KAM1 182112Z 26020KT 17/M05 A2959 RMK A01 T01711045  RH  022%=      5-min Rain = 0
KAM1 182113Z 26019KT 17/M05 A2959 RMK A01 T01711046  RH  022%=      5-min Rain = 0
KAM1 182114Z 27016KT 17/M04 A2959 RMK A01 T01701044  RH  023%=      5-min Rain = 0
KAM1 182115Z 26017KT 17/M04 A2959 RMK A01 T01701042  RH  023%=      5-min Rain = 0
KAM1 182116Z 26019KT 17/M04 A2959 RMK A01 T01701042  RH  023%=      5-min Rain = 0
KAM1 182117Z 26020KT 17/M04 A2959 RMK A01 T01691044  RH  023%=      5-min Rain = 0
KAM1 182118Z 26019KT 17/M05 A2959 RMK A01 T01681045  RH  023%=      5-min Rain = 0
KAM1 182119Z 26017G23KT 17/M04 A2959 RMK A01 T01671044  RH  023%=      5-min Rain = 0
KAM1 182120Z 26017KT 17/M05 A2959 RMK A01 T01671045  RH  023%=      5-min Rain = 0
KAM1 182121Z 26017KT 17/M05 A2959 RMK A01 T01661046  RH  023%=      5-min Rain = 0
KAM1 182122Z 26017KT 17/M05 A2959 RMK A01 T01661046  RH  023%=      5-min Rain = 0
KAM1 182123Z 26019KT 17/M05 A2959 RMK A01 T01661046  RH  023%=      5-min Rain = 0
KAM1 182124Z 27015G20KT 17/M05 A2959 RMK A01 T01651047  RH  023%=      5-min Rain = 0
KAM1 182125Z 27015KT 17/M05 A2959 RMK A01 T01651047  RH  023%=      5-min Rain = 0
KAM1 182126Z 26015G21KT 17/M05 A2959 RMK A01 T01651047  RH  023%=      5-min Rain = 0
KAM1 182127Z 26018G23KT 16/M05 A2959 RMK A01 T01641049  RH  023%=      5-min Rain = 0
KAM1 182128Z 26019G25KT 16/M05 A2959 RMK A01 T01641050  RH  023%=      5-min Rain = 0
KAM1 182129Z 26018G25KT 16/M05 A2959 RMK A01 T01641052  RH  022%=      5-min Rain = 0
KAM1 182130Z 26016KT 16/M05 A296 RMK A01 T01631052  RH  022%=      5-min Rain = 0
KAM1 182131Z 26017G23KT 16/M05 A296 RMK A01 T01631051  RH  023%=      5-min Rain = 0
KAM1 182132Z 27020G25KT 16/M05 A296 RMK A01 T01631052  RH  022%=      5-min Rain = 0
KAM1 182133Z 27019KT 16/M05 A296 RMK A01 T01631054  RH  022%=      5-min Rain = 0
KAM1 182134Z 27020KT 16/M06 A296 RMK A01 T01631056  RH  022%=      5-min Rain = 0
KAM1 182135Z 27018KT 16/M06 A296 RMK A01 T01631057  RH  022%=      5-min Rain = 0
KAM1 182136Z 27020G26KT 16/M06 A296 RMK A01 T01641057  RH  021%=      5-min Rain = 0
KAM1 182137Z 27020KT 16/M06 A296 RMK A01 T01641060  RH  021%=      5-min Rain = 0
KAM1 182138Z 27019KT 16/M06 A296 RMK A01 T01641061  RH  021%=      5-min Rain = 0
KAM1 182139Z 27016KT 16/M06 A2961 RMK A01 T01641061  RH  021%=      5-min Rain = 0
KAM1 182140Z 27018KT 16/M06 A2961 RMK A01 T01631062  RH  021%=      5-min Rain = 0
KAM1 182141Z 27019KT 16/M06 A2961 RMK A01 T01631064  RH  020%=      5-min Rain = 0
KAM1 182142Z 26016KT 16/M06 A2961 RMK A01 T01641063  RH  020%=      5-min Rain = 0
KAM1 182143Z 27019G25KT 16/M06 A2961 RMK A01 T01631063  RH  021%=      5-min Rain = 0
KAM1 182144Z 27020KT 16/M06 A2961 RMK A01 T01631064  RH  021%=      5-min Rain = 0
KAM1 182145Z 27021G26KT 16/M06 A2961 RMK A01 T01631064  RH  021%=      5-min Rain = 0
KAM1 182146Z 27023KT 16/M06 A2961 RMK A01 T01631064  RH  020%=      5-min Rain = 0
KAM1 182147Z 27022KT 16/M07 A2961 RMK A01 T01621065  RH  021%=      5-min Rain = 0
KAM1 182148Z 27020G25KT 16/M06 A2961 RMK A01 T01611064  RH  021%=      5-min Rain = 0
KAM1 182149Z 28016G21KT 16/M06 A2961 RMK A01 T01601063  RH  021%=      5-min Rain = 0
KAM1 182150Z 28021KT 16/M06 A2961 RMK A01 T01601063  RH  021%=      5-min Rain = 0
KAM1 182151Z 27022KT 16/M06 A2961 RMK A01 T01591064  RH  021%=      5-min Rain = 0
KAM1 182152Z 27019G25KT 16/M07 A2961 RMK A01 T01581065  RH  021%=      5-min Rain = 0
KAM1 182153Z 27019G26KT 16/M07 A2962 RMK A01 T01571065  RH  021%=      5-min Rain = 0
KAM1 182154Z 27021KT 16/M06 A2962 RMK A01 T01561064  RH  021%=      5-min Rain = 0
KAM1 182155Z 27018KT 16/M07 A2962 RMK A01 T01551065  RH  021%=      5-min Rain = 0
KAM1 182156Z 27020KT 15/M07 A2962 RMK A01 T01531065  RH  022%=      5-min Rain = 0
KAM1 182157Z 27017G22KT 15/M07 A2962 RMK A01 T01531066  RH  022%=      5-min Rain = 0
KAM1 182158Z 27017G22KT 15/M07 A2962 RMK A01 T01531065  RH  022%=      5-min Rain = 0
KAM1 182159Z 27019KT 15/M07 A2962 RMK A01 T01521065  RH  022%=      5-min Rain = 0
KAM1 182200Z 28019KT 15/M07 A2962 RMK A01 T01521065  RH  022%=      5-min Rain = 0
KAM1 182201Z 28017KT 15/M07 A2962 RMK A01 T01521065  RH  022%=      5-min Rain = 0
KAM1 182202Z 29018G23KT 15/M07 A2962 RMK A01 T01521066  RH  022%=      5-min Rain = 0
KAM1 182203Z 28017KT 15/M07 A2962 RMK A01 T01521066  RH  022%=      5-min Rain = 0
KAM1 182204Z 28013KT 15/M07 A2963 RMK A01 T01531065  RH  022%=      5-min Rain = 0
KAM1 182205Z 28015KT 15/M07 A2963 RMK A01 T01521065  RH  022%=      5-min Rain = 0
KAM1 182206Z 28017KT 15/M07 A2963 RMK A01 T01521065  RH  022%=      5-min Rain = 0
KAM1 182207Z 27017G22KT 15/M07 A2963 RMK A01 T01511065  RH  022%=      5-min Rain = 0
KAM1 182208Z 27019G24KT 15/M06 A2963 RMK A01 T01511064  RH  022%=      5-min Rain = 0
KAM1 182209Z 27017KT 15/M07 A2963 RMK A01 T01511065  RH  022%=      5-min Rain = 0
KAM1 182210Z 27017G22KT 15/M06 A2963 RMK A01 T01501064  RH  022%=      5-min Rain = 0
KAM1 182211Z 27018KT 15/M06 A2964 RMK A01 T01501064  RH  022%=      5-min Rain = 0
KAM1 182212Z 28016KT 15/M06 A2964 RMK A01 T01501064  RH  022%=      5-min Rain = 0
KAM1 182213Z 27019KT 15/M07 A2963 RMK A01 T01501065  RH  022%=      5-min Rain = 0
KAM1 182214Z 26020KT 15/M06 A2963 RMK A01 T01501064  RH  022%=      5-min Rain = 0
KAM1 182215Z 27018G23KT 15/M06 A2964 RMK A01 T01501063  RH  022%=      5-min Rain = 0
KAM1 182216Z 29027G35KT 15/M06 A2964 RMK A01 T01501060  RH  023%=      5-min Rain = 0
KAM1 182217Z 29037G44KT 15/M04 A2964 RMK A01 T01471044  RH  026%=      5-min Rain = 0
KAM1 182218Z 31031G38KT 14/M03 A2965 RMK A01 T01391033  RH  030%=      5-min Rain = 0
KAM1 182219Z 32029G35KT 13/M03 A2965 RMK A01 T01341028  RH  032%=      5-min Rain = 0
KAM1 182220Z 33015G20KT 13/M02 A2965 RMK A01 T01291024  RH  034%=      5-min Rain = 0
KAM1 182221Z 33013KT 13/M03 A2966 RMK A01 T01281030  RH  033%=      5-min Rain = 0
KAM1 182222Z 30022G27KT 13/M03 A2966 RMK A01 T01301032  RH  032%=      5-min Rain = 0
KAM1 182223Z 30026G34KT 13/M03 A2966 RMK A01 T01331034  RH  031%=      5-min Rain = 0
KAM1 182224Z 29024G36KT 13/M03 A2966 RMK A01 T01341032  RH  031%=      5-min Rain = 0
KAM1 182225Z 33017G22KT 13/M03 A2966 RMK A01 T01331031  RH  032%=      5-min Rain = 0
KAM1 182226Z 32018G24KT 13/M04 A2965 RMK A01 T01331035  RH  031%=      5-min Rain = 0
KAM1 182227Z 29022G30KT 14/M04 A2965 RMK A01 T01351039  RH  030%=      5-min Rain = 0
KAM1 182228Z 33016G25KT 14/M04 A2965 RMK A01 T01381044  RH  028%=      5-min Rain = 0
KAM1 182229Z 34013G20KT 14/M05 A2965 RMK A01 T01411045  RH  027%=      5-min Rain = 0
KAM1 182230Z 34014KT 14/M05 A2965 RMK A01 T01421047  RH  027%=      5-min Rain = 0
KAM1 182231Z 34010KT 14/M05 A2965 RMK A01 T01431047  RH  027%=      5-min Rain = 0
KAM1 182232Z 32014G24KT 14/M05 A2965 RMK A01 T01441048  RH  026%=      5-min Rain = 0
KAM1 182233Z 31014G23KT 15/M05 A2964 RMK A01 T01451051  RH  025%=      5-min Rain = 0
KAM1 182234Z 29010KT 15/M05 A2964 RMK A01 T01471053  RH  025%=      5-min Rain = 0
KAM1 182235Z 30009KT 15/M05 A2964 RMK A01 T01471054  RH  025%=      5-min Rain = 0
KAM1 182236Z 31010KT 15/M05 A2964 RMK A01 T01491054  RH  024%=      5-min Rain = 0
KAM1 182237Z 31015G20KT 15/M05 A2965 RMK A01 T01491054  RH  024%=      5-min Rain = 0
KAM1 182238Z 30014KT 15/M05 A2965 RMK A01 T01491053  RH  024%=      5-min Rain = 0
KAM1 182239Z 32013KT 15/M05 A2965 RMK A01 T01501052  RH  024%=      5-min Rain = 0
KAM1 182240Z 35015KT 15/M05 A2966 RMK A01 T01501052  RH  024%=      5-min Rain = 0
KAM1 182241Z 36019G29KT 15/M05 A2967 RMK A01 T01501046  RH  026%=      5-min Rain = 0
KAM1 182242Z 01019G27KT 14/M02 A2967 RMK A01 T01391022  RH  033%=      5-min Rain = 0
KAM1 182243Z 01020G25KT 13/M02 A2967 RMK A01 T01251016  RH  038%=      5-min Rain = 0
KAM1 182244Z 01021KT 12/M01 A2967 RMK A01 T01181012  RH  041%=      5-min Rain = 0
KAM1 182245Z 01019G25KT 11/M01 A2967 RMK A01 T01141010  RH  042%=      5-min Rain = 0
KAM1 182246Z 02016G21KT 11/M01 A2967 RMK A01 T01121008  RH  043%=      5-min Rain = 0
KAM1 182247Z 03016G22KT 11/M01 A2967 RMK A01 T01101007  RH  044%=      5-min Rain = 0
KAM1 182248Z 01021KT 11/M01 A2967 RMK A01 T01081007  RH  045%=      5-min Rain = 0
KAM1 182249Z 01024G31KT 11/M01 A2967 RMK A01 T01071007  RH  045%=      5-min Rain = 0
KAM1 182250Z 01024KT 10/M01 A2967 RMK A01 T01041008  RH  046%=      5-min Rain = 0
KAM1 182251Z 02021KT 10/M01 A2968 RMK A01 T01011007  RH  047%=      5-min Rain = 0
KAM1 182252Z 02022KT 10/M01 A2967 RMK A01 T00981007  RH  048%=      5-min Rain = 0
KAM1 182253Z 01022KT 10/M01 A2967 RMK A01 T00961006  RH  049%=      5-min Rain = 0
KAM1 182254Z 01022G31KT 09/M01 A2968 RMK A01 T00941006  RH  050%=      5-min Rain = 0
KAM1 182255Z 01028KT 09/M01 A2968 RMK A01 T00921006  RH  050%=      5-min Rain = 0
KAM1 182256Z 01021G27KT 09/M01 A2968 RMK A01 T00901007  RH  051%=      5-min Rain = 0
KAM1 182257Z 01019KT 09/M01 A2968 RMK A01 T00881007  RH  051%=      5-min Rain = 0
KAM1 182258Z 01021G28KT 09/M01 A2969 RMK A01 T00871006  RH  052%=      5-min Rain = 0
KAM1 182259Z 02024KT 09/M01 A2969 RMK A01 T00851005  RH  053%=      5-min Rain = 0
KAM1 182300Z 01025KT 08/M00 A2969 RMK A01 T00841004  RH  054%=      5-min Rain = 0
KAM1 182301Z 01019G24KT 08/M00 A2969 RMK A01 T00831004  RH  054%=      5-min Rain = 0
KAM1 182302Z 01025G32KT 08/M00 A2969 RMK A01 T00821004  RH  054%=      5-min Rain = 0
KAM1 182303Z 01028G33KT 08/M01 A2969 RMK A01 T00801007  RH  054%=      5-min Rain = 0
KAM1 182304Z 00024KT 08/M01 A2969 RMK A01 T00781007  RH  055%=      5-min Rain = 0
KAM1 182305Z 01020G29KT 08/M01 A2969 RMK A01 T00771007  RH  055%=      5-min Rain = 0
KAM1 182306Z 00023G30KT 08/M01 A2969 RMK A01 T00761008  RH  055%=      5-min Rain = 0
KAM1 182307Z 01024G31KT 08/M01 A2969 RMK A01 T00751009  RH  055%=      5-min Rain = 0
KAM1 182308Z 01028KT 07/M01 A2969 RMK A01 T00741009  RH  056%=      5-min Rain = 0
KAM1 182309Z 00024KT 07/M01 A2969 RMK A01 T00741008  RH  056%=      5-min Rain = 0
KAM1 182310Z 00023G28KT 07/M01 A2969 RMK A01 T00741008  RH  056%=      5-min Rain = 0
KAM1 182311Z 00025G31KT 08/M01 A2969 RMK A01 T00751010  RH  055%=      5-min Rain = 0
KAM1 182312Z 00027KT 08/M01 A297 RMK A01 T00751011  RH  055%=      5-min Rain = 0
KAM1 182313Z 00021G27KT 07/M01 A297 RMK A01 T00741011  RH  055%=      5-min Rain = 0
KAM1 182314Z 01021KT 07/M01 A297 RMK A01 T00731011  RH  055%=      5-min Rain = 0
KAM1 182315Z 00021G26KT 07/M01 A297 RMK A01 T00731011  RH  055%=      5-min Rain = 0
KAM1 182316Z 01024KT 07/M01 A297 RMK A01 T00721011  RH  056%=      5-min Rain = 0
KAM1 182317Z 00023G35KT 07/M01 A297 RMK A01 T00711011  RH  056%=      5-min Rain = 0
KAM1 182318Z 01022G30KT 07/M01 A2969 RMK A01 T00701011  RH  056%=      5-min Rain = 0
KAM1 182319Z 02025G31KT 07/M01 A297 RMK A01 T00691010  RH  057%=      5-min Rain = 0
KAM1 182320Z 02026G32KT 07/M01 A297 RMK A01 T00661011  RH  058%=      5-min Rain = 0
KAM1 182321Z 01024G32KT 06/M01 A297 RMK A01 T00641010  RH  059%=      5-min Rain = 0
KAM1 182322Z 01022G29KT 06/M01 A297 RMK A01 T00631009  RH  060%=      5-min Rain = 0
KAM1 182323Z 02025G31KT 06/M01 A297 RMK A01 T00621010  RH  060%=      5-min Rain = 0
KAM1 182324Z 01026KT 06/M01 A297 RMK A01 T00611009  RH  061%=      5-min Rain = 0
KAM1 182325Z 01026KT 06/M01 A297 RMK A01 T00611009  RH  061%=      5-min Rain = 0
KAM1 182326Z 01026KT 06/M01 A297 RMK A01 T00601009  RH  061%=      5-min Rain = 0
KAM1 182327Z 01026G32KT 06/M01 A297 RMK A01 T00601009  RH  062%=      5-min Rain = 0
KAM1 182328Z 01026KT 06/M01 A297 RMK A01 T00591008  RH  062%=      5-min Rain = 0
KAM1 182329Z 01023G29KT 06/M01 A297 RMK A01 T00591008  RH  062%=      5-min Rain = 0
KAM1 182330Z 01026G31KT 06/M01 A297 RMK A01 T00581008  RH  062%=      5-min Rain = 0
KAM1 182331Z 01028KT 06/M01 A297 RMK A01 T00581008  RH  063%=      5-min Rain = 0
KAM1 182332Z 00025G31KT 06/M01 A2971 RMK A01 T00571008  RH  063%=      5-min Rain = 0
KAM1 182333Z 01025G30KT 06/M01 A2971 RMK A01 T00571008  RH  063%=      5-min Rain = 0
KAM1 182334Z 01022G27KT 06/M01 A2971 RMK A01 T00571007  RH  063%=      5-min Rain = 0
KAM1 182335Z 01023G28KT 06/M01 A2971 RMK A01 T00561007  RH  064%=      5-min Rain = 0
KAM1 182336Z 01020KT 06/M01 A2971 RMK A01 T00551007  RH  064%=      5-min Rain = 0
KAM1 182337Z 01023KT 06/M01 A2971 RMK A01 T00551007  RH  064%=      5-min Rain = 0
KAM1 182338Z 01022G32KT 05/M01 A2971 RMK A01 T00541007  RH  064%=      5-min Rain = 0
KAM1 182339Z 01025G34KT 05/M01 A2972 RMK A01 T00531008  RH  065%=      5-min Rain = 0
KAM1 182340Z 36026G32KT 05/M01 A2972 RMK A01 T00521008  RH  065%=      5-min Rain = 0
KAM1 182341Z 00026KT 05/M01 A2972 RMK A01 T00511009  RH  065%=      5-min Rain = 0
KAM1 182342Z 01021G26KT 05/M01 A2972 RMK A01 T00501009  RH  065%=      5-min Rain = 0
KAM1 182343Z 00024G32KT 05/M01 A2973 RMK A01 T00491010  RH  066%=      5-min Rain = 0
KAM1 182344Z 00022KT 05/M01 A2973 RMK A01 T00491010  RH  066%=      5-min Rain = 0
KAM1 182345Z 00023G30KT 05/M01 A2973 RMK A01 T00481010  RH  066%=      5-min Rain = 0
KAM1 182346Z 00020G26KT 05/M01 A2973 RMK A01 T00481009  RH  066%=      5-min Rain = 0
KAM1 182347Z 00022KT 05/M01 A2974 RMK A01 T00471010  RH  067%=      5-min Rain = 0
KAM1 182348Z 36024G29KT 05/M01 A2974 RMK A01 T00461010  RH  067%=      5-min Rain = 0
KAM1 182349Z 01021KT 05/M01 A2974 RMK A01 T00461010  RH  067%=      5-min Rain = 0
KAM1 182350Z 00024KT 05/M01 A2974 RMK A01 T00451010  RH  067%=      5-min Rain = 0
KAM1 182351Z 00025G31KT 05/M01 A2974 RMK A01 T00451010  RH  068%=      5-min Rain = 0
KAM1 182352Z 01023G28KT 04/M01 A2974 RMK A01 T00441011  RH  068%=      5-min Rain = 0
KAM1 182353Z 01023G31KT 04/M01 A2974 RMK A01 T00431011  RH  068%=      5-min Rain = 0
KAM1 182354Z 01027G34KT 04/M01 A2975 RMK A01 T00421011  RH  068%=      5-min Rain = 0
KAM1 182355Z 01024G29KT 04/M01 A2974 RMK A01 T00421011  RH  068%=      5-min Rain = 0
KAM1 182356Z 00022G27KT 04/M01 A2975 RMK A01 T00411011  RH  069%=      5-min Rain = 0
KAM1 182357Z 01019KT 04/M01 A2974 RMK A01 T00411011  RH  069%=      5-min Rain = 0
KAM1 182358Z 00022G27KT 04/M01 A2975 RMK A01 T00411011  RH  069%=      5-min Rain = 0
KAM1 182359Z 00022G31KT 04/M01 A2975 RMK A01 T00421010  RH  069%=      5-min Rain = 0
KAM1 190000Z 00026KT 04/M01 A2975 RMK A01 T00421011  RH  068%=      5-min Rain = 0
KAM1 190001Z 36030KT 04/M01 A2975 RMK A01 T00431011  RH  068%=      5-min Rain = 0
KAM1 190002Z 36030KT 04/M01 A2975 RMK A01 T00431012  RH  068%=      5-min Rain = 0
KAM1 190003Z 01028G37KT 04/M01 A2975 RMK A01 T00421013  RH  067%=      5-min Rain = 0
KAM1 190004Z 00025G30KT 04/M01 A2975 RMK A01 T00421013  RH  067%=      5-min Rain = 0
KAM1 190005Z 00029G35KT 04/M01 A2975 RMK A01 T00421013  RH  067%=      5-min Rain = 0
KAM1 190006Z 36028G36KT 04/M01 A2975 RMK A01 T00411013  RH  067%=      5-min Rain = 0
KAM1 190007Z 00029G36KT 04/M01 A2975 RMK A01 T00411014  RH  068%=      5-min Rain = 0
KAM1 190008Z 35029KT 04/M01 A2975 RMK A01 T00401014  RH  068%=      5-min Rain = 0
KAM1 190009Z 36021KT 04/M01 A2975 RMK A01 T00401014  RH  068%=      5-min Rain = 0
KAM1 190010Z 00021G27KT 04/M01 A2975 RMK A01 T00401013  RH  068%=      5-min Rain = 0
KAM1 190011Z 36022G27KT 04/M01 A2975 RMK A01 T00391013  RH  069%=      5-min Rain = 0
KAM1 190012Z 00025G30KT 04/M01 A2975 RMK A01 T00391013  RH  069%=      5-min Rain = 0
KAM1 190013Z 00022G27KT 04/M01 A2976 RMK A01 T00391013  RH  069%=      5-min Rain = 0
KAM1 190014Z 00019KT 04/M01 A2976 RMK A01 T00381013  RH  069%=      5-min Rain = 0
KAM1 190015Z 00024G31KT 04/M01 A2976 RMK A01 T00381013  RH  069%=      5-min Rain = 0
KAM1 190016Z 00026G31KT 04/M01 A2976 RMK A01 T00381013  RH  069%=      5-min Rain = 0
KAM1 190017Z 35020G29KT 04/M01 A2976 RMK A01 T00371013  RH  070%=      5-min Rain = 0
KAM1 190018Z 35028G37KT 04/M01 A2976 RMK A01 T00371013  RH  070%=      5-min Rain = 0
KAM1 190019Z 36030G37KT 04/M01 A2977 RMK A01 T00361014  RH  070%=      5-min Rain = 0
KAM1 190020Z 00030KT 04/M01 A2977 RMK A01 T00351014  RH  070%=      5-min Rain = 0
KAM1 190021Z 00026G33KT 03/M01 A2977 RMK A01 T00341014  RH  071%=      5-min Rain = 0
KAM1 190022Z 36024G30KT 03/M01 A2977 RMK A01 T00331014  RH  071%=      5-min Rain = 0
KAM1 190023Z 36027G34KT 03/M01 A2977 RMK A01 T00331014  RH  071%=      5-min Rain = 0
KAM1 190024Z 00025G32KT 03/M01 A2977 RMK A01 T00331014  RH  072%=      5-min Rain = 0
KAM1 190025Z 36023G29KT 03/M01 A2978 RMK A01 T00331013  RH  072%=      5-min Rain = 0
KAM1 190026Z 36023KT 03/M01 A2978 RMK A01 T00321013  RH  072%=      5-min Rain = 0
KAM1 190027Z 36023G28KT 03/M01 A2978 RMK A01 T00321013  RH  072%=      5-min Rain = 0
KAM1 190028Z 35027G33KT 03/M01 A2978 RMK A01 T00321013  RH  072%=      5-min Rain = 0
KAM1 190029Z 36021KT 03/M01 A2978 RMK A01 T00321013  RH  072%=      5-min Rain = 0
KAM1 190030Z 00026KT 03/M01 A2978 RMK A01 T00321013  RH  072%=      5-min Rain = 0
KAM1 190031Z 36022KT 03/M01 A2979 RMK A01 T00311013  RH  073%=      5-min Rain = 0
KAM1 190032Z 01023G30KT 03/M01 A2979 RMK A01 T00311013  RH  073%=      5-min Rain = 0
KAM1 190033Z 00024G30KT 03/M01 A2979 RMK A01 T00311014  RH  073%=      5-min Rain = 0
KAM1 190034Z 00027G32KT 03/M01 A2979 RMK A01 T00311014  RH  073%=      5-min Rain = 0
KAM1 190035Z 00025KT 03/M01 A2979 RMK A01 T00301014  RH  073%=      5-min Rain = 0
KAM1 190036Z 00023G28KT 03/M01 A2979 RMK A01 T00301014  RH  073%=      5-min Rain = 0
KAM1 190037Z 36020G26KT 03/M01 A298 RMK A01 T00301014  RH  073%=      5-min Rain = 0
KAM1 190038Z 36025KT 03/M01 A298 RMK A01 T00301014  RH  073%=      5-min Rain = 0
KAM1 190039Z 01023KT 03/M01 A298 RMK A01 T00291014  RH  073%=      5-min Rain = 0
KAM1 190040Z 00021G26KT 03/M01 A298 RMK A01 T00291014  RH  074%=      5-min Rain = 0
KAM1 190041Z 36023KT 03/M01 A298 RMK A01 T00291013  RH  074%=      5-min Rain = 0
KAM1 190042Z 00023KT 03/M01 A298 RMK A01 T00291013  RH  074%=      5-min Rain = 0
KAM1 190043Z 35016G21KT 03/M01 A298 RMK A01 T00291013  RH  074%=      5-min Rain = 0
KAM1 190044Z 36020KT 03/M01 A2981 RMK A01 T00291013  RH  074%=      5-min Rain = 0
KAM1 190045Z 00022G30KT 03/M01 A2981 RMK A01 T00291013  RH  074%=      5-min Rain = 0
KAM1 190046Z 00029KT 03/M01 A2981 RMK A01 T00281014  RH  074%=      5-min Rain = 0
KAM1 190047Z 00028G35KT 03/M02 A2981 RMK A01 T00271016  RH  074%=      5-min Rain = 0
KAM1 190048Z 01033G39KT 03/M02 A2982 RMK A01 T00261017  RH  074%=      5-min Rain = 0
KAM1 190049Z 36030KT 03/M02 A2982 RMK A01 T00251017  RH  074%=      5-min Rain = 0
KAM1 190050Z 35025G31KT 03/M02 A2982 RMK A01 T00251017  RH  074%=      5-min Rain = 0
KAM1 190051Z 35029G36KT 02/M02 A2982 RMK A01 T00241018  RH  074%=      5-min Rain = 0
KAM1 190052Z 35026G34KT 02/M02 A2982 RMK A01 T00231019  RH  074%=      5-min Rain = 0
KAM1 190053Z 35026G32KT 02/M02 A2982 RMK A01 T00231019  RH  074%=      5-min Rain = 0
KAM1 190054Z 35028G35KT 02/M02 A2982 RMK A01 T00221019  RH  074%=      5-min Rain = 0
KAM1 190055Z 35027G38KT 02/M02 A2983 RMK A01 T00221019  RH  074%=      5-min Rain = 0
KAM1 190056Z 35026G34KT 02/M02 A2983 RMK A01 T00211020  RH  075%=      5-min Rain = 0
KAM1 190057Z 35023G30KT 02/M02 A2983 RMK A01 T00211019  RH  075%=      5-min Rain = 0
KAM1 190058Z 35025G30KT 02/M02 A2983 RMK A01 T00211019  RH  075%=      5-min Rain = 0
KAM1 190059Z 35025G33KT 02/M02 A2983 RMK A01 T00211019  RH  075%=      5-min Rain = 0
KAM1 190100Z 36022G27KT 02/M02 A2984 RMK A01 T00201019  RH  075%=      5-min Rain = 0
KAM1 190101Z 36024G29KT 02/M02 A2984 RMK A01 T00201019  RH  075%=      5-min Rain = 0
KAM1 190102Z 36023G29KT 02/M02 A2984 RMK A01 T00191019  RH  076%=      5-min Rain = 0
KAM1 190103Z 36020KT 02/M02 A2984 RMK A01 T00191019  RH  076%=      5-min Rain = 0
KAM1 190104Z 35025G30KT 02/M02 A2984 RMK A01 T00191019  RH  076%=      5-min Rain = 0
KAM1 190105Z 35023G28KT 02/M02 A2984 RMK A01 T00191018  RH  076%=      5-min Rain = 0
KAM1 190106Z 35021KT 02/M02 A2984 RMK A01 T00181018  RH  077%=      5-min Rain = 0
KAM1 190107Z 35017KT 02/M02 A2985 RMK A01 T00181018  RH  077%=      5-min Rain = 0
KAM1 190108Z 35020G25KT 02/M02 A2985 RMK A01 T00181017  RH  077%=      5-min Rain = 0
KAM1 190109Z 35023G28KT 02/M02 A2985 RMK A01 T00181017  RH  077%=      5-min Rain = 0
KAM1 190110Z 35022G27KT 02/M02 A2985 RMK A01 T00181017  RH  077%=      5-min Rain = 0
KAM1 190111Z 36021KT 02/M02 A2985 RMK A01 T00181018  RH  077%=      5-min Rain = 0
KAM1 190112Z 36024G31KT 02/M02 A2986 RMK A01 T00171018  RH  077%=      5-min Rain = 0
KAM1 190113Z 36020G26KT 02/M02 A2986 RMK A01 T00171019  RH  077%=      5-min Rain = 0
KAM1 190114Z 35017G22KT 02/M02 A2986 RMK A01 T00171018  RH  078%=      5-min Rain = 0
KAM1 190115Z 35018KT 02/M02 A2986 RMK A01 T00161017  RH  078%=      5-min Rain = 0
KAM1 190116Z 00017G23KT 02/M02 A2986 RMK A01 T00161017  RH  078%=      5-min Rain = 0
KAM1 190117Z 00025G32KT 02/M02 A2986 RMK A01 T00161017  RH  078%=      5-min Rain = 0
KAM1 190118Z 35023KT 02/M02 A2986 RMK A01 T00161018  RH  078%=      5-min Rain = 0
KAM1 190119Z 00022KT 02/M02 A2986 RMK A01 T00151018  RH  078%=      5-min Rain = 0
KAM1 190120Z 00025G30KT 02/M02 A2986 RMK A01 T00151018  RH  079%=      5-min Rain = 0
KAM1 190121Z 00023G28KT 02/M02 A2986 RMK A01 T00151018  RH  079%=      5-min Rain = 0
KAM1 190122Z 35021KT 02/M02 A2986 RMK A01 T00151018  RH  079%=      5-min Rain = 0
KAM1 190123Z 35026KT 01/M02 A2986 RMK A01 T00141018  RH  079%=      5-min Rain = 0
KAM1 190124Z 36025KT 01/M02 A2986 RMK A01 T00141018  RH  079%=      5-min Rain = 0
KAM1 190125Z 36021G29KT 01/M02 A2986 RMK A01 T00141017  RH  080%=      5-min Rain = 0
KAM1 190126Z 00020KT 01/M02 A2986 RMK A01 T00141017  RH  080%=      5-min Rain = 0
KAM1 190127Z 00019KT 01/M02 A2987 RMK A01 T00141016  RH  081%=      5-min Rain = 0
KAM1 190128Z 00019KT 01/M02 A2987 RMK A01 T00141015  RH  081%=      5-min Rain = 0
KAM1 190129Z 36020G25KT 01/M02 A2987 RMK A01 T00131015  RH  081%=      5-min Rain = 0
KAM1 190130Z 35024KT 01/M02 A2986 RMK A01 T00131015  RH  081%=      5-min Rain = 0
KAM1 190131Z 36022G28KT 01/M02 A2987 RMK A01 T00131016  RH  081%=      5-min Rain = 0
KAM1 190132Z 35022G28KT 01/M02 A2987 RMK A01 T00131016  RH  081%=      5-min Rain = 0
KAM1 190133Z 35024G29KT 01/M02 A2987 RMK A01 T00141016  RH  081%=      5-min Rain = 0
KAM1 190134Z 36025G32KT 01/M02 A2987 RMK A01 T00141016  RH  081%=      5-min Rain = 0
KAM1 190135Z 36025G31KT 01/M02 A2987 RMK A01 T00131017  RH  080%=      5-min Rain = 0
KAM1 190136Z 35029G35KT 01/M02 A2987 RMK A01 T00141017  RH  080%=      5-min Rain = 0
KAM1 190137Z 36030G37KT 01/M02 A2987 RMK A01 T00141019  RH  079%=      5-min Rain = 0
KAM1 190138Z 36027KT 01/M02 A2988 RMK A01 T00141019  RH  079%=      5-min Rain = 0
KAM1 190139Z 36024G29KT 01/M02 A2988 RMK A01 T00141018  RH  079%=      5-min Rain = 0
KAM1 190140Z 36025G31KT 01/M02 A2988 RMK A01 T00131019  RH  079%=      5-min Rain = 0
KAM1 190141Z 00028G37KT 01/M02 A2988 RMK A01 T00131020  RH  079%=      5-min Rain = 0
KAM1 190142Z 36023G29KT 01/M02 A2988 RMK A01 T00131021  RH  078%=      5-min Rain = 0
KAM1 190143Z 35026G32KT 01/M02 A2988 RMK A01 T00131020  RH  079%=      5-min Rain = 0
KAM1 190144Z 35027G34KT 01/M02 A2988 RMK A01 T00121021  RH  078%=      5-min Rain = 0
KAM1 190145Z 35025G32KT 01/M02 A2988 RMK A01 T00121023  RH  078%=      5-min Rain = 0
KAM1 190146Z 36026G33KT 01/M02 A2988 RMK A01 T00111023  RH  078%=      5-min Rain = 0
KAM1 190147Z 36026G33KT 01/M02 A2988 RMK A01 T00101023  RH  079%=      5-min Rain = 0
KAM1 190148Z 35026G31KT 01/M02 A2988 RMK A01 T00101022  RH  079%=      5-min Rain = 0
KAM1 190149Z 36025KT 01/M02 A2989 RMK A01 T00101022  RH  079%=      5-min Rain = 0
KAM1 190150Z 36019G25KT 01/M02 A2989 RMK A01 T00091022  RH  080%=      5-min Rain = 0
KAM1 190151Z 36021G27KT 01/M02 A2989 RMK A01 T00091021  RH  080%=      5-min Rain = 0
KAM1 190152Z 35027G33KT 01/M02 A2989 RMK A01 T00091021  RH  080%=      5-min Rain = 0
KAM1 190153Z 35026G32KT 01/M02 A2988 RMK A01 T00091022  RH  080%=      5-min Rain = 0
KAM1 190154Z 35023G29KT 01/M02 A2989 RMK A01 T00091022  RH  080%=      5-min Rain = 0
KAM1 190155Z 01022G28KT 01/M02 A2989 RMK A01 T00091021  RH  081%=      5-min Rain = 0
KAM1 190156Z 35027G32KT 01/M02 A2989 RMK A01 T00091021  RH  081%=      5-min Rain = 0
KAM1 190157Z 35027G32KT 01/M02 A2989 RMK A01 T00091021  RH  081%=      5-min Rain = 0
KAM1 190158Z 35024G31KT 01/M02 A2989 RMK A01 T00081020  RH  081%=      5-min Rain = 0
KAM1 190159Z 35025G32KT 01/M02 A2989 RMK A01 T00081020  RH  082%=      5-min Rain = 0
KAM1 190200Z 35029G36KT 01/M02 A2989 RMK A01 T00071019  RH  082%=      5-min Rain = 0
KAM1 190201Z 35030KT 01/M02 A2989 RMK A01 T00071020  RH  083%=      5-min Rain = 0
KAM1 190202Z 35028G33KT 01/M02 A2989 RMK A01 T00071019  RH  083%=      5-min Rain = 0
KAM1 190203Z 35025G30KT 01/M02 A299 RMK A01 T00071019  RH  083%=      5-min Rain = 0
KAM1 190204Z 35026G31KT 01/M02 A2989 RMK A01 T00071019  RH  083%=      5-min Rain = 0
KAM1 190205Z 35026G32KT 01/M02 A2989 RMK A01 T00071019  RH  083%=      5-min Rain = 0
KAM1 190206Z 35022G30KT 01/M02 A299 RMK A01 T00071018  RH  083%=      5-min Rain = 0
KAM1 190207Z 35022G29KT 01/M02 A299 RMK A01 T00071018  RH  084%=      5-min Rain = 0
KAM1 190208Z 35020KT 01/M02 A299 RMK A01 T00061017  RH  085%=      5-min Rain = 0
KAM1 190209Z 35021KT 01/M02 A299 RMK A01 T00051016  RH  085%=      5-min Rain = 0
KAM1 190210Z 36024KT 01/M02 A299 RMK A01 T00051016  RH  086%=      5-min Rain = 0
KAM1 190211Z 35028KT 00/M02 A299 RMK A01 T00041015  RH  087%=      5-min Rain = 0
KAM1 190212Z 35023KT 00/M02 A299 RMK A01 T00041015  RH  087%=      5-min Rain = 0
KAM1 190213Z 35025G30KT 00/M01 A299 RMK A01 T00041014  RH  088%=      5-min Rain = 0
KAM1 190214Z 35023KT 00/M01 A299 RMK A01 T00031013  RH  089%=      5-min Rain = 0
KAM1 190215Z 35022KT 00/M01 A299 RMK A01 T00031013  RH  089%=      5-min Rain = 0
KAM1 190216Z 35021KT 00/M01 A299 RMK A01 T00031013  RH  089%=      5-min Rain = 0
KAM1 190217Z 36024G29KT 00/M01 A299 RMK A01 T00031012  RH  089%=      5-min Rain = 0
KAM1 190218Z 35022G27KT 00/M01 A299 RMK A01 T00031013  RH  089%=      5-min Rain = 0
KAM1 190219Z 35022G28KT 00/M01 A299 RMK A01 T00041014  RH  088%=      5-min Rain = 0
KAM1 190220Z 35029G35KT 00/M01 A2991 RMK A01 T00041014  RH  088%=      5-min Rain = 0
KAM1 190221Z 35024KT 00/M01 A299 RMK A01 T00041014  RH  087%=      5-min Rain = 0
KAM1 190222Z 35026KT 01/M01 A2991 RMK A01 T00051014  RH  087%=      5-min Rain = 0
KAM1 190223Z 36025G31KT 01/M01 A2991 RMK A01 T00051014  RH  087%=      5-min Rain = 0
KAM1 190224Z 36023G28KT 00/M02 A2991 RMK A01 T00041015  RH  087%=      5-min Rain = 0
KAM1 190225Z 36022G28KT 01/M01 A2991 RMK A01 T00051014  RH  087%=      5-min Rain = 0
KAM1 190226Z 35022G27KT 01/M01 A2991 RMK A01 T00051014  RH  087%=      5-min Rain = 0
KAM1 190227Z 35024G31KT 00/M02 A2991 RMK A01 T00041015  RH  087%=      5-min Rain = 0
KAM1 190228Z 36026G31KT 00/M02 A2991 RMK A01 T00041015  RH  087%=      5-min Rain = 0
KAM1 190229Z 35030G35KT 00/M02 A2991 RMK A01 T00041016  RH  087%=      5-min Rain = 0
KAM1 190230Z 35027KT 00/M02 A2991 RMK A01 T00041016  RH  087%=      5-min Rain = 0
KAM1 190231Z 35031G43KT 00/M02 A2991 RMK A01 T00031017  RH  086%=      5-min Rain = 0
KAM1 190232Z 35027KT 00/M02 A2991 RMK A01 T00031017  RH  086%=      5-min Rain = 0
KAM1 190233Z 36028G33KT 00/M02 A2991 RMK A01 T00031018  RH  086%=      5-min Rain = 0
KAM1 190234Z 35027G34KT 00/M02 A2992 RMK A01 T00031019  RH  086%=      5-min Rain = 0
KAM1 190235Z 35024G30KT 00/M02 A2991 RMK A01 T00031020  RH  085%=      5-min Rain = 0
KAM1 190236Z 35027G33KT 00/M02 A2992 RMK A01 T00021021  RH  085%=      5-min Rain = 0
KAM1 190237Z 35030KT 00/M02 A2992 RMK A01 T00021020  RH  085%=      5-min Rain = 0
KAM1 190238Z 35029G38KT 00/M02 A2992 RMK A01 T00021021  RH  085%=      5-min Rain = 0
KAM1 190239Z 35026G36KT 00/M02 A2992 RMK A01 T00021021  RH  085%=      5-min Rain = 0
KAM1 190240Z 36030KT 00/M02 A2992 RMK A01 T00011022  RH  085%=      5-min Rain = 0
KAM1 190241Z 36032KT 00/M02 A2993 RMK A01 T00011023  RH  084%=      5-min Rain = 0
KAM1 190242Z 35025G31KT 00/02 A2993 RMK A01 T00000-23  RH  084%=      5-min Rain = 0
KAM1 190243Z 35024KT 00/02 A2993 RMK A01 T00000-23  RH  085%=      5-min Rain = 0
KAM1 190244Z 00033KT 00/02 A2993 RMK A01 T00000-23  RH  085%=      5-min Rain = 0
KAM1 190245Z 35024G31KT 00/02 A2993 RMK A01 T00-00-23  RH  084%=      5-min Rain = 0
KAM1 190246Z 35024G29KT 00/02 A2993 RMK A01 T00-00-22  RH  085%=      5-min Rain = 0
KAM1 190247Z 36029G35KT 00/02 A2993 RMK A01 T00-00-22  RH  086%=      5-min Rain = 0
KAM1 190248Z 35032G38KT 00/02 A2993 RMK A01 T00-00-23  RH  085%=      5-min Rain = 0
KAM1 190249Z 35029KT 00/02 A2993 RMK A01 T00-00-24  RH  084%=      5-min Rain = 0
KAM1 190250Z 36023G28KT M00/M02 A2993 RMK A01 T10011024  RH  084%=      5-min Rain = 0
KAM1 190251Z 36032G41KT M00/M02 A2993 RMK A01 T10011024  RH  085%=      5-min Rain = 0
KAM1 190252Z 35034G41KT M00/M03 A2993 RMK A01 T10011025  RH  084%=      5-min Rain = 0
KAM1 190253Z 35031KT M00/M03 A2993 RMK A01 T10011025  RH  084%=      5-min Rain = 0
KAM1 190254Z 35030G39KT M00/M03 A2993 RMK A01 T10011025  RH  084%=      5-min Rain = 0
KAM1 190255Z 36026G35KT M00/M03 A2993 RMK A01 T10021025  RH  084%=      5-min Rain = 0
KAM1 190256Z 35028G34KT M00/M03 A2993 RMK A01 T10021025  RH  085%=      5-min Rain = 0
KAM1 190257Z 35027G33KT M00/M03 A2993 RMK A01 T10021025  RH  085%=      5-min Rain = 0
KAM1 190258Z 35023G32KT M00/M03 A2993 RMK A01 T10021025  RH  085%=      5-min Rain = 0
KAM1 190259Z 36023KT M00/M02 A2993 RMK A01 T10021024  RH  085%=      5-min Rain = 0
KAM1 190300Z 35030G37KT M00/M02 A2993 RMK A01 T10021023  RH  086%=      5-min Rain = 0
KAM1 190301Z 35030G39KT M00/M02 A2993 RMK A01 T10021024  RH  085%=      5-min Rain = 0
KAM1 190302Z 35026G31KT M00/M02 A2993 RMK A01 T10021024  RH  085%=      5-min Rain = 0
KAM1 190303Z 36027G34KT M00/M02 A2993 RMK A01 T10021023  RH  086%=      5-min Rain = 0
KAM1 190304Z 35026G36KT M00/M02 A2994 RMK A01 T10021023  RH  086%=      5-min Rain = 0
KAM1 190305Z 35028KT M00/M02 A2994 RMK A01 T10021023  RH  086%=      5-min Rain = 0
KAM1 190306Z 36029KT M00/M02 A2994 RMK A01 T10021024  RH  086%=      5-min Rain = 0
KAM1 190307Z 36026G32KT M00/M02 A2994 RMK A01 T10021023  RH  086%=      5-min Rain = 0
KAM1 190308Z 36026G32KT M00/M02 A2994 RMK A01 T10021023  RH  086%=      5-min Rain = 0
KAM1 190309Z 35030G37KT M00/M02 A2994 RMK A01 T10021023  RH  086%=      5-min Rain = 0
KAM1 190310Z 35026KT M00/M02 A2994 RMK A01 T10021024  RH  085%=      5-min Rain = 0
KAM1 190311Z 35023G28KT M00/M02 A2994 RMK A01 T10021023  RH  085%=      5-min Rain = 0
KAM1 190312Z 35023G28KT M00/M02 A2994 RMK A01 T10021023  RH  086%=      5-min Rain = 0
KAM1 190313Z 35020G27KT M00/M02 A2995 RMK A01 T10021023  RH  086%=      5-min Rain = 0
KAM1 190314Z 35026G32KT M00/M02 A2995 RMK A01 T10021023  RH  086%=      5-min Rain = 0
KAM1 190315Z 35029G35KT M00/M02 A2995 RMK A01 T10021024  RH  085%=      5-min Rain = 0
KAM1 190316Z 35026G33KT M00/M02 A2995 RMK A01 T10011024  RH  085%=      5-min Rain = 0
KAM1 190317Z 36029G34KT M00/M02 A2995 RMK A01 T10011024  RH  085%=      5-min Rain = 0
KAM1 190318Z 35030KT M00/M02 A2995 RMK A01 T10011024  RH  085%=      5-min Rain = 0
KAM1 190319Z 35025G31KT M00/M02 A2995 RMK A01 T10011023  RH  085%=      5-min Rain = 0
KAM1 190320Z 35027G32KT M00/M02 A2995 RMK A01 T10021023  RH  085%=      5-min Rain = 0
KAM1 190321Z 35029KT M00/M02 A2995 RMK A01 T10011023  RH  085%=      5-min Rain = 0
KAM1 190322Z 35026G33KT M00/M02 A2996 RMK A01 T10021023  RH  085%=      5-min Rain = 0
KAM1 190323Z 35020G25KT M00/M02 A2996 RMK A01 T10011022  RH  086%=      5-min Rain = 0
KAM1 190324Z 35025G32KT M00/M02 A2996 RMK A01 T10021022  RH  086%=      5-min Rain = 0
KAM1 190325Z 36024G30KT M00/M02 A2996 RMK A01 T10021023  RH  086%=      5-min Rain = 0
KAM1 190326Z 35023G28KT M00/M02 A2996 RMK A01 T10021023  RH  086%=      5-min Rain = 0
KAM1 190327Z 36023G28KT M00/M02 A2996 RMK A01 T10021023  RH  086%=      5-min Rain = 0
KAM1 190328Z 36024G31KT M00/M02 A2996 RMK A01 T10021023  RH  086%=      5-min Rain = 0
KAM1 190329Z 36024G29KT M00/M02 A2996 RMK A01 T10021022  RH  086%=      5-min Rain = 0
KAM1 190330Z 36025KT M00/M02 A2997 RMK A01 T10021023  RH  086%=      5-min Rain = 0
KAM1 190331Z 35024G30KT M00/M02 A2996 RMK A01 T10021022  RH  086%=      5-min Rain = 0
KAM1 190332Z 35023KT M00/M02 A2997 RMK A01 T10021022  RH  086%=      5-min Rain = 0
KAM1 190333Z 36021KT M00/M02 A2997 RMK A01 T10021021  RH  087%=      5-min Rain = 0
KAM1 190334Z 00020KT M00/M02 A2997 RMK A01 T10021020  RH  088%=      5-min Rain = 0
KAM1 190335Z 36021G26KT M00/M02 A2997 RMK A01 T10031020  RH  088%=      5-min Rain = 0
KAM1 190336Z 00018G24KT M00/M02 A2997 RMK A01 T10031019  RH  089%=      5-min Rain = 0
KAM1 190337Z 36020G25KT M00/M02 A2997 RMK A01 T10031019  RH  089%=      5-min Rain = 0
KAM1 190338Z 36019KT M00/M02 A2997 RMK A01 T10031019  RH  089%=      5-min Rain = 0
KAM1 190339Z 35018G23KT M00/M02 A2997 RMK A01 T10041018  RH  090%=      5-min Rain = 0
KAM1 190340Z 36020G26KT M00/M02 A2997 RMK A01 T10041017  RH  091%=      5-min Rain = 0
KAM1 190341Z 35023KT M00/M02 A2997 RMK A01 T10041017  RH  090%=      5-min Rain = 0
KAM1 190342Z 36026KT M00/M02 A2998 RMK A01 T10041018  RH  090%=      5-min Rain = 0
KAM1 190343Z 00028KT M00/M02 A2998 RMK A01 T10041017  RH  091%=      5-min Rain = 0
KAM1 190344Z 00024G31KT M00/M02 A2998 RMK A01 T10041018  RH  091%=      5-min Rain = 0
KAM1 190345Z 36023G28KT M01/M02 A2998 RMK A01 T10051018  RH  091%=      5-min Rain = 0
KAM1 190346Z 00022KT M01/M02 A2998 RMK A01 T10051017  RH  092%=      5-min Rain = 0
KAM1 190347Z 35029G35KT M01/M02 A2998 RMK A01 T10051017  RH  092%=      5-min Rain = 0
KAM1 190348Z 00025KT M01/M02 A2998 RMK A01 T10061017  RH  092%=      5-min Rain = 0
KAM1 190349Z 36026KT M01/M02 A2998 RMK A01 T10061017  RH  092%=      5-min Rain = 0
KAM1 190350Z 36027G34KT M01/M02 A2998 RMK A01 T10061018  RH  092%=      5-min Rain = 0
KAM1 190351Z 36026G33KT M01/M02 A2998 RMK A01 T10051018  RH  091%=      5-min Rain = 0
KAM1 190352Z 00028G34KT M01/M02 A2998 RMK A01 T10061019  RH  090%=      5-min Rain = 0
KAM1 190353Z 36035G40KT M01/M02 A2998 RMK A01 T10061020  RH  090%=      5-min Rain = 0
KAM1 190354Z 00028G38KT M01/M02 A2998 RMK A01 T10061021  RH  089%=      5-min Rain = 0
KAM1 190355Z 36032G37KT M01/M02 A2998 RMK A01 T10061021  RH  089%=      5-min Rain = 0
KAM1 190356Z 36027G33KT M01/M02 A2999 RMK A01 T10071021  RH  090%=      5-min Rain = 0
KAM1 190357Z 36032G38KT M01/M02 A2999 RMK A01 T10071021  RH  090%=      5-min Rain = 0
KAM1 190358Z 36030G40KT M01/M02 A2999 RMK A01 T10071021  RH  091%=      5-min Rain = 0
KAM1 190359Z 36025G32KT M01/M02 A2999 RMK A01 T10071021  RH  091%=      5-min Rain = 0
KAM1 190400Z 35027G32KT M01/M02 A2999 RMK A01 T10081021  RH  091%=      5-min Rain = 0
KAM1 190401Z 35023KT M01/M02 A2999 RMK A01 T10081021  RH  091%=      5-min Rain = 0
KAM1 190402Z 35025G30KT M01/M02 A2999 RMK A01 T10081020  RH  091%=      5-min Rain = 0
KAM1 190403Z 35026G34KT M01/M02 A2999 RMK A01 T10081021  RH  091%=      5-min Rain = 0
KAM1 190404Z 36030G39KT M01/M02 A2999 RMK A01 T10071021  RH  090%=      5-min Rain = 0
KAM1 190405Z 36026G33KT M01/M02 A2999 RMK A01 T10071022  RH  090%=      5-min Rain = 0
KAM1 190406Z 36025G33KT M01/M02 A2999 RMK A01 T10071022  RH  090%=      5-min Rain = 0
KAM1 190407Z 00028G34KT M01/M02 A2999 RMK A01 T10071022  RH  090%=      5-min Rain = 0
KAM1 190408Z 36030G36KT M01/M02 A30 RMK A01 T10081022  RH  090%=      5-min Rain = 0
KAM1 190409Z 36026KT M01/M02 A2999 RMK A01 T10081022  RH  090%=      5-min Rain = 0
KAM1 190410Z 35028KT M01/M02 A30 RMK A01 T10081022  RH  091%=      5-min Rain = 0
KAM1 190411Z 36023KT M01/M02 A30 RMK A01 T10091021  RH  092%=      5-min Rain = 0
KAM1 190412Z 00025G30KT M01/M02 A30 RMK A01 T10101021  RH  092%=      5-min Rain = 0
KAM1 190413Z 36025G32KT M01/M02 A30 RMK A01 T10101021  RH  092%=      5-min Rain = 0
KAM1 190414Z 36028G34KT M01/M02 A30 RMK A01 T10101021  RH  092%=      5-min Rain = 0
KAM1 190415Z 00023KT M01/M02 A30 RMK A01 T10101021  RH  092%=      5-min Rain = 0
KAM1 190416Z 00026G31KT M01/M02 A30 RMK A01 T10101021  RH  093%=      5-min Rain = 0
KAM1 190417Z 36023KT M01/M02 A30 RMK A01 T10111021  RH  093%=      5-min Rain = 0
KAM1 190418Z 35025G32KT M01/M02 A30 RMK A01 T10111021  RH  093%=      5-min Rain = 0
KAM1 190419Z 36027KT M01/M02 A30 RMK A01 T10111021  RH  093%=      5-min Rain = 0
KAM1 190420Z 36026KT M01/M02 A30 RMK A01 T10101021  RH  093%=      5-min Rain = 0
KAM1 190421Z 36021G29KT M01/M02 A30 RMK A01 T10111021  RH  093%=      5-min Rain = 0
KAM1 190422Z 00021KT M01/M02 A30 RMK A01 T10111021  RH  093%=      5-min Rain = 0
KAM1 190423Z 36020G25KT M01/M02 A30 RMK A01 T10111020  RH  093%=      5-min Rain = 0
KAM1 190424Z 00023G29KT M01/M02 A3001 RMK A01 T10111020  RH  094%=      5-min Rain = 0
KAM1 190425Z 36023G29KT M01/M02 A3001 RMK A01 T10101020  RH  094%=      5-min Rain = 0
KAM1 190426Z 35019KT M01/M02 A3001 RMK A01 T10101020  RH  093%=      5-min Rain = 0
KAM1 190427Z 36023G28KT M01/M02 A3001 RMK A01 T10101020  RH  094%=      5-min Rain = 0
KAM1 190428Z 35023G29KT M01/M02 A3001 RMK A01 T10101020  RH  094%=      5-min Rain = 0
KAM1 190429Z 00024G29KT M01/M02 A3001 RMK A01 T10111020  RH  093%=      5-min Rain = 0
KAM1 190430Z 00022KT M01/M02 A3001 RMK A01 T10101020  RH  093%=      5-min Rain = 0
KAM1 190431Z 00019G25KT M01/M02 A3001 RMK A01 T10101020  RH  093%=      5-min Rain = 0
KAM1 190432Z 00018KT M01/M02 A3001 RMK A01 T10101020  RH  093%=      5-min Rain = 0
KAM1 190433Z 36023G31KT M01/M02 A3001 RMK A01 T10101019  RH  094%=      5-min Rain = 0
KAM1 190434Z 36023G28KT M01/M02 A3001 RMK A01 T10101019  RH  093%=      5-min Rain = 0
KAM1 190435Z 36018KT M01/M02 A3001 RMK A01 T10101019  RH  093%=      5-min Rain = 0
KAM1 190436Z 36024G30KT M01/M02 A3001 RMK A01 T10101019  RH  093%=      5-min Rain = 0
KAM1 190437Z 35026KT M01/M02 A3001 RMK A01 T10101020  RH  093%=      5-min Rain = 0
KAM1 190438Z 00025G30KT M01/M02 A3001 RMK A01 T10091020  RH  092%=      5-min Rain = 0
KAM1 190439Z 36026G35KT M01/M02 A3001 RMK A01 T10091020  RH  092%=      5-min Rain = 0
KAM1 190440Z 00022KT M01/M02 A3001 RMK A01 T10091021  RH  092%=      5-min Rain = 0
KAM1 190441Z 00021G27KT M01/M02 A3001 RMK A01 T10091021  RH  092%=      5-min Rain = 0
KAM1 190442Z 00022G28KT M01/M02 A3001 RMK A01 T10091020  RH  092%=      5-min Rain = 0
KAM1 190443Z 00019KT M01/M02 A3002 RMK A01 T10091020  RH  092%=      5-min Rain = 0
KAM1 190444Z 36024KT M01/M02 A3002 RMK A01 T10091020  RH  092%=      5-min Rain = 0
KAM1 190445Z 36021G26KT M01/M02 A3002 RMK A01 T10091020  RH  092%=      5-min Rain = 0
KAM1 190446Z 00019G26KT M01/M02 A3002 RMK A01 T10091020  RH  092%=      5-min Rain = 0
KAM1 190447Z 36021KT M01/M02 A3002 RMK A01 T10091020  RH  092%=      5-min Rain = 0
KAM1 190448Z 35024G31KT M01/M02 A3002 RMK A01 T10091020  RH  092%=      5-min Rain = 0
KAM1 190449Z 36019G26KT M01/M02 A3002 RMK A01 T10091020  RH  092%=      5-min Rain = 0
KAM1 190450Z 01025G30KT M01/M02 A3002 RMK A01 T10091021  RH  092%=      5-min Rain = 0
KAM1 190451Z 35024G30KT M01/M02 A3002 RMK A01 T10091021  RH  092%=      5-min Rain = 0
KAM1 190452Z 35026G31KT M01/M02 A3002 RMK A01 T10091022  RH  091%=      5-min Rain = 0
KAM1 190453Z 00026KT M01/M02 A3002 RMK A01 T10091022  RH  091%=      5-min Rain = 0
KAM1 190454Z 36020G27KT M01/M02 A3002 RMK A01 T10091022  RH  091%=      5-min Rain = 0
KAM1 190455Z 36020KT M01/M02 A3002 RMK A01 T10091022  RH  091%=      5-min Rain = 0
KAM1 190456Z 00017KT M01/M02 A3002 RMK A01 T10091022  RH  091%=      5-min Rain = 0
KAM1 190457Z 36021G31KT M01/M02 A3002 RMK A01 T10091021  RH  091%=      5-min Rain = 0
KAM1 190458Z 00023G28KT M01/M02 A3003 RMK A01 T10091021  RH  091%=      5-min Rain = 0
KAM1 190459Z 36019KT M01/M02 A3003 RMK A01 T10091022  RH  091%=      5-min Rain = 0
KAM1 190500Z 36023G30KT M01/M02 A3003 RMK A01 T10091022  RH  091%=      5-min Rain = 0
KAM1 190501Z 36023KT M01/M02 A3003 RMK A01 T10091022  RH  091%=      5-min Rain = 0
KAM1 190502Z 36023G28KT M01/M02 A3003 RMK A01 T10091022  RH  091%=      5-min Rain = 0
KAM1 190503Z 36019KT M01/M02 A3003 RMK A01 T10091022  RH  091%=      5-min Rain = 0
KAM1 190504Z 36022KT M01/M02 A3003 RMK A01 T10081021  RH  091%=      5-min Rain = 0
KAM1 190505Z 00021G28KT M01/M02 A3003 RMK A01 T10081021  RH  091%=      5-min Rain = 0
KAM1 190506Z 36023G30KT M01/M02 A3003 RMK A01 T10081021  RH  091%=      5-min Rain = 0
KAM1 190507Z 36020G25KT M01/M02 A3003 RMK A01 T10081021  RH  091%=      5-min Rain = 0
KAM1 190508Z 00019G24KT M01/M02 A3003 RMK A01 T10081021  RH  091%=      5-min Rain = 0
KAM1 190509Z 36020G25KT M01/M02 A3003 RMK A01 T10081021  RH  091%=      5-min Rain = 0
KAM1 190510Z 36022G28KT M01/M02 A3003 RMK A01 T10081021  RH  091%=      5-min Rain = 0
KAM1 190511Z 36023KT M01/M02 A3003 RMK A01 T10081021  RH  091%=      5-min Rain = 0
KAM1 190512Z 36018KT M01/M02 A3003 RMK A01 T10081021  RH  091%=      5-min Rain = 0
KAM1 190513Z 35015KT M01/M02 A3003 RMK A01 T10081020  RH  091%=      5-min Rain = 0
KAM1 190514Z 00016KT M01/M02 A3004 RMK A01 T10081020  RH  091%=      5-min Rain = 0
KAM1 190515Z 36018G24KT M01/M02 A3004 RMK A01 T10081020  RH  092%=      5-min Rain = 0
KAM1 190516Z 36017KT M01/M02 A3004 RMK A01 T10081020  RH  092%=      5-min Rain = 0
KAM1 190517Z 36019KT M01/M02 A3004 RMK A01 T10071020  RH  091%=      5-min Rain = 0
KAM1 190518Z 35020G27KT M01/M02 A3004 RMK A01 T10071020  RH  091%=      5-min Rain = 0
KAM1 190519Z 35018KT M01/M02 A3004 RMK A01 T10071020  RH  091%=      5-min Rain = 0
KAM1 190520Z 00014KT M01/M02 A3004 RMK A01 T10071020  RH  091%=      5-min Rain = 0
KAM1 190521Z 35016KT M01/M02 A3004 RMK A01 T10071020  RH  091%=      5-min Rain = 0
KAM1 190522Z 35019G25KT M01/M02 A3004 RMK A01 T10071019  RH  091%=      5-min Rain = 0
KAM1 190523Z 36019G25KT M01/M02 A3005 RMK A01 T10061019  RH  091%=      5-min Rain = 0
KAM1 190524Z 35022KT M01/M02 A3005 RMK A01 T10061020  RH  091%=      5-min Rain = 0
KAM1 190525Z 35019KT M01/M02 A3005 RMK A01 T10061020  RH  090%=      5-min Rain = 0
KAM1 190526Z 34021G27KT M01/M02 A3004 RMK A01 T10061020  RH  090%=      5-min Rain = 0
KAM1 190527Z 35020KT M01/M02 A3004 RMK A01 T10061020  RH  090%=      5-min Rain = 0
KAM1 190528Z 34017KT M01/M02 A3004 RMK A01 T10051020  RH  089%=      5-min Rain = 0
KAM1 190529Z 34017G22KT M01/M02 A3004 RMK A01 T10051020  RH  089%=      5-min Rain = 0
KAM1 190530Z 35017KT M01/M02 A3004 RMK A01 T10051021  RH  089%=      5-min Rain = 0
KAM1 190531Z 35016G21KT M01/M02 A3004 RMK A01 T10051021  RH  089%=      5-min Rain = 0
KAM1 190532Z 34016KT M01/M02 A3004 RMK A01 T10051021  RH  089%=      5-min Rain = 0
KAM1 190533Z 35018G24KT M01/M02 A3004 RMK A01 T10051021  RH  089%=      5-min Rain = 0
KAM1 190534Z 34027G33KT M00/M02 A3004 RMK A01 T10041023  RH  087%=      5-min Rain = 0
KAM1 190535Z 34021G27KT M00/M02 A3004 RMK A01 T10041024  RH  086%=      5-min Rain = 0
KAM1 190536Z 35020KT M00/M03 A3005 RMK A01 T10041025  RH  086%=      5-min Rain = 0
KAM1 190537Z 35025G30KT M00/M03 A3005 RMK A01 T10041025  RH  086%=      5-min Rain = 0
KAM1 190538Z 34020G25KT M00/M03 A3005 RMK A01 T10041026  RH  085%=      5-min Rain = 0
KAM1 190539Z 35021G30KT M00/M03 A3005 RMK A01 T10031025  RH  085%=      5-min Rain = 0
KAM1 190540Z 35024G32KT M00/M03 A3005 RMK A01 T10041026  RH  085%=      5-min Rain = 0
KAM1 190541Z 35024KT M00/M03 A3005 RMK A01 T10041026  RH  085%=      5-min Rain = 0
KAM1 190542Z 35025KT M00/M03 A3005 RMK A01 T10041026  RH  085%=      5-min Rain = 0
KAM1 190543Z 35019KT M00/M03 A3005 RMK A01 T10041026  RH  085%=      5-min Rain = 0
KAM1 190544Z 35020KT M00/M03 A3005 RMK A01 T10041026  RH  085%=      5-min Rain = 0
KAM1 190545Z 35018KT M00/M03 A3005 RMK A01 T10041026  RH  085%=      5-min Rain = 0
KAM1 190546Z 35017KT M00/M03 A3006 RMK A01 T10041026  RH  086%=      5-min Rain = 0
KAM1 190547Z 35018G23KT M00/M03 A3005 RMK A01 T10041025  RH  086%=      5-min Rain = 0
KAM1 190548Z 35023KT M01/M03 A3006 RMK A01 T10051026  RH  086%=      5-min Rain = 0
KAM1 190549Z 35023KT M01/M03 A3006 RMK A01 T10051025  RH  086%=      5-min Rain = 0
KAM1 190550Z 35021KT M01/M03 A3006 RMK A01 T10051026  RH  086%=      5-min Rain = 0
KAM1 190551Z 35021G28KT M01/M03 A3006 RMK A01 T10051026  RH  086%=      5-min Rain = 0
KAM1 190552Z 35026G31KT M00/M03 A3006 RMK A01 T10041026  RH  086%=      5-min Rain = 0
KAM1 190553Z 34019KT M00/M03 A3006 RMK A01 T10041026  RH  085%=      5-min Rain = 0
KAM1 190554Z 35019KT M00/M03 A3006 RMK A01 T10041025  RH  085%=      5-min Rain = 0
KAM1 190555Z 35019G26KT M00/M03 A3006 RMK A01 T10041025  RH  086%=      5-min Rain = 0
KAM1 190556Z 35018G23KT M00/M03 A3006 RMK A01 T10041025  RH  086%=      5-min Rain = 0
KAM1 190557Z 35019G24KT M00/M03 A3006 RMK A01 T10041025  RH  086%=      5-min Rain = 0
KAM1 190558Z 34021KT M00/M03 A3006 RMK A01 T10041025  RH  085%=      5-min Rain = 0
KAM1 190559Z 34023KT M00/M03 A3006 RMK A01 T10041025  RH  085%=      5-min Rain = 0

Page generated in 0.0331 seconds.